<?xml version="1.0" encoding="UTF-8" standalone="no" ?>
<gpx xmlns="http://www.topografix.com/GPX/1/1" xmlns:xsi="http://www.w3.org/2001/XMLSchema-instance" xsi:schemaLocation="http://www.topografix.com/GPX/1/1 http://www.topografix.com/GPX/1/1/gpx.xsd" version="1.1" creator="VisuGPX - https://www.visugpx.com">
  <metadata>
    <name>Rando Mijanes Picausel </name>
    <desc><![CDATA[sortie en skis de rando au départ de la station de Mijanes ]]></desc>
  </metadata>
  <trk>
    <name><![CDATA[Mijanes Picaucel]]></name>
    <trkseg>
      <trkpt lat="42.72807" lon="2.01706">
        <ele>1535.36</ele>
        <time>2018-01-31T08:40:33Z</time>
      </trkpt>
      <trkpt lat="42.72809" lon="2.01713">
        <ele>1525.75</ele>
        <time>2018-01-31T08:40:56Z</time>
      </trkpt>
      <trkpt lat="42.72808" lon="2.0171">
        <ele>1527.67</ele>
        <time>2018-01-31T08:41:21Z</time>
      </trkpt>
      <trkpt lat="42.72807" lon="2.01708">
        <ele>1529.59</ele>
        <time>2018-01-31T08:41:33Z</time>
      </trkpt>
      <trkpt lat="42.72807" lon="2.01708">
        <ele>1533.92</ele>
        <time>2018-01-31T08:41:51Z</time>
      </trkpt>
      <trkpt lat="42.72808" lon="2.0171">
        <ele>1533.92</ele>
        <time>2018-01-31T08:42:13Z</time>
      </trkpt>
      <trkpt lat="42.72808" lon="2.0171">
        <ele>1532.96</ele>
        <time>2018-01-31T08:42:44Z</time>
      </trkpt>
      <trkpt lat="42.72807" lon="2.01708">
        <ele>1531.52</ele>
        <time>2018-01-31T08:42:59Z</time>
      </trkpt>
      <trkpt lat="42.72803" lon="2.0171">
        <ele>1528.63</ele>
        <time>2018-01-31T08:43:29Z</time>
      </trkpt>
      <trkpt lat="42.72807" lon="2.01711">
        <ele>1528.15</ele>
        <time>2018-01-31T08:43:59Z</time>
      </trkpt>
      <trkpt lat="42.72807" lon="2.01707">
        <ele>1528.63</ele>
        <time>2018-01-31T08:44:28Z</time>
      </trkpt>
      <trkpt lat="42.72807" lon="2.01707">
        <ele>1529.59</ele>
        <time>2018-01-31T08:44:41Z</time>
      </trkpt>
      <trkpt lat="42.72811" lon="2.01708">
        <ele>1530.08</ele>
        <time>2018-01-31T08:44:57Z</time>
      </trkpt>
      <trkpt lat="42.7281" lon="2.01706">
        <ele>1532</ele>
        <time>2018-01-31T08:45:16Z</time>
      </trkpt>
      <trkpt lat="42.72808" lon="2.01703">
        <ele>1534.4</ele>
        <time>2018-01-31T08:45:32Z</time>
      </trkpt>
      <trkpt lat="42.72805" lon="2.01706">
        <ele>1533.44</ele>
        <time>2018-01-31T08:45:46Z</time>
      </trkpt>
      <trkpt lat="42.72805" lon="2.01713">
        <ele>1530.08</ele>
        <time>2018-01-31T08:46:09Z</time>
      </trkpt>
      <trkpt lat="42.72808" lon="2.01712">
        <ele>1527.67</ele>
        <time>2018-01-31T08:46:22Z</time>
      </trkpt>
      <trkpt lat="42.72811" lon="2.0171">
        <ele>1527.19</ele>
        <time>2018-01-31T08:46:44Z</time>
      </trkpt>
      <trkpt lat="42.7281" lon="2.01715">
        <ele>1524.79</ele>
        <time>2018-01-31T08:47:01Z</time>
      </trkpt>
      <trkpt lat="42.72809" lon="2.01714">
        <ele>1524.79</ele>
        <time>2018-01-31T08:47:23Z</time>
      </trkpt>
      <trkpt lat="42.72809" lon="2.01712">
        <ele>1525.75</ele>
        <time>2018-01-31T08:47:44Z</time>
      </trkpt>
      <trkpt lat="42.7281" lon="2.01714">
        <ele>1526.23</ele>
        <time>2018-01-31T08:48:04Z</time>
      </trkpt>
      <trkpt lat="42.7281" lon="2.01717">
        <ele>1526.23</ele>
        <time>2018-01-31T08:48:24Z</time>
      </trkpt>
      <trkpt lat="42.72811" lon="2.01717">
        <ele>1526.23</ele>
        <time>2018-01-31T08:48:39Z</time>
      </trkpt>
      <trkpt lat="42.72809" lon="2.01712">
        <ele>1527.19</ele>
        <time>2018-01-31T08:49:05Z</time>
      </trkpt>
      <trkpt lat="42.72812" lon="2.01708">
        <ele>1533.44</ele>
        <time>2018-01-31T08:49:30Z</time>
      </trkpt>
      <trkpt lat="42.7281" lon="2.01706">
        <ele>1535.36</ele>
        <time>2018-01-31T08:49:53Z</time>
      </trkpt>
      <trkpt lat="42.72812" lon="2.01702">
        <ele>1534.88</ele>
        <time>2018-01-31T08:50:10Z</time>
      </trkpt>
      <trkpt lat="42.72818" lon="2.01695">
        <ele>1533.44</ele>
        <time>2018-01-31T08:50:24Z</time>
      </trkpt>
      <trkpt lat="42.72826" lon="2.01681">
        <ele>1532.96</ele>
        <time>2018-01-31T08:50:42Z</time>
      </trkpt>
      <trkpt lat="42.72831" lon="2.0167">
        <ele>1535.36</ele>
        <time>2018-01-31T08:50:56Z</time>
      </trkpt>
      <trkpt lat="42.72838" lon="2.01655">
        <ele>1536.8</ele>
        <time>2018-01-31T08:51:12Z</time>
      </trkpt>
      <trkpt lat="42.72844" lon="2.01642">
        <ele>1537.77</ele>
        <time>2018-01-31T08:51:27Z</time>
      </trkpt>
      <trkpt lat="42.72848" lon="2.01632">
        <ele>1538.73</ele>
        <time>2018-01-31T08:51:39Z</time>
      </trkpt>
      <trkpt lat="42.72853" lon="2.01621">
        <ele>1539.69</ele>
        <time>2018-01-31T08:51:53Z</time>
      </trkpt>
      <trkpt lat="42.72857" lon="2.01607">
        <ele>1540.65</ele>
        <time>2018-01-31T08:52:09Z</time>
      </trkpt>
      <trkpt lat="42.72863" lon="2.01595">
        <ele>1543.05</ele>
        <time>2018-01-31T08:52:23Z</time>
      </trkpt>
      <trkpt lat="42.72868" lon="2.01583">
        <ele>1544.01</ele>
        <time>2018-01-31T08:52:37Z</time>
      </trkpt>
      <trkpt lat="42.72875" lon="2.01572">
        <ele>1545.46</ele>
        <time>2018-01-31T08:52:51Z</time>
      </trkpt>
      <trkpt lat="42.72879" lon="2.01556">
        <ele>1548.82</ele>
        <time>2018-01-31T08:53:08Z</time>
      </trkpt>
      <trkpt lat="42.72884" lon="2.01542">
        <ele>1550.26</ele>
        <time>2018-01-31T08:53:24Z</time>
      </trkpt>
      <trkpt lat="42.72887" lon="2.0153">
        <ele>1551.71</ele>
        <time>2018-01-31T08:53:38Z</time>
      </trkpt>
      <trkpt lat="42.72891" lon="2.01518">
        <ele>1553.15</ele>
        <time>2018-01-31T08:53:52Z</time>
      </trkpt>
      <trkpt lat="42.72894" lon="2.01507">
        <ele>1556.51</ele>
        <time>2018-01-31T08:54:05Z</time>
      </trkpt>
      <trkpt lat="42.72897" lon="2.01495">
        <ele>1559.4</ele>
        <time>2018-01-31T08:54:20Z</time>
      </trkpt>
      <trkpt lat="42.729" lon="2.01481">
        <ele>1561.8</ele>
        <time>2018-01-31T08:54:35Z</time>
      </trkpt>
      <trkpt lat="42.72902" lon="2.01467">
        <ele>1565.16</ele>
        <time>2018-01-31T08:54:52Z</time>
      </trkpt>
      <trkpt lat="42.729" lon="2.01453">
        <ele>1566.12</ele>
        <time>2018-01-31T08:55:07Z</time>
      </trkpt>
      <trkpt lat="42.72895" lon="2.01437">
        <ele>1569.01</ele>
        <time>2018-01-31T08:55:23Z</time>
      </trkpt>
      <trkpt lat="42.7289" lon="2.01422">
        <ele>1570.93</ele>
        <time>2018-01-31T08:55:41Z</time>
      </trkpt>
      <trkpt lat="42.72885" lon="2.01408">
        <ele>1573.33</ele>
        <time>2018-01-31T08:55:57Z</time>
      </trkpt>
      <trkpt lat="42.72883" lon="2.01392">
        <ele>1574.3</ele>
        <time>2018-01-31T08:56:14Z</time>
      </trkpt>
      <trkpt lat="42.72883" lon="2.01375">
        <ele>1576.7</ele>
        <time>2018-01-31T08:56:31Z</time>
      </trkpt>
      <trkpt lat="42.72883" lon="2.01356">
        <ele>1576.7</ele>
        <time>2018-01-31T08:56:48Z</time>
      </trkpt>
      <trkpt lat="42.72884" lon="2.01341">
        <ele>1577.66</ele>
        <time>2018-01-31T08:57:04Z</time>
      </trkpt>
      <trkpt lat="42.72881" lon="2.01324">
        <ele>1580.06</ele>
        <time>2018-01-31T08:57:21Z</time>
      </trkpt>
      <trkpt lat="42.72878" lon="2.01308">
        <ele>1583.91</ele>
        <time>2018-01-31T08:57:38Z</time>
      </trkpt>
      <trkpt lat="42.7288" lon="2.01293">
        <ele>1585.35</ele>
        <time>2018-01-31T08:57:54Z</time>
      </trkpt>
      <trkpt lat="42.72887" lon="2.01282">
        <ele>1585.83</ele>
        <time>2018-01-31T08:58:13Z</time>
      </trkpt>
      <trkpt lat="42.72886" lon="2.01262">
        <ele>1587.27</ele>
        <time>2018-01-31T08:58:30Z</time>
      </trkpt>
      <trkpt lat="42.72884" lon="2.01259">
        <ele>1588.24</ele>
        <time>2018-01-31T08:58:33Z</time>
      </trkpt>
      <trkpt lat="42.7288" lon="2.01255">
        <ele>1587.75</ele>
        <time>2018-01-31T08:58:38Z</time>
      </trkpt>
      <trkpt lat="42.72879" lon="2.01236">
        <ele>1590.64</ele>
        <time>2018-01-31T08:58:53Z</time>
      </trkpt>
      <trkpt lat="42.72879" lon="2.01215">
        <ele>1588.24</ele>
        <time>2018-01-31T08:59:08Z</time>
      </trkpt>
      <trkpt lat="42.72879" lon="2.01195">
        <ele>1589.2</ele>
        <time>2018-01-31T08:59:23Z</time>
      </trkpt>
      <trkpt lat="42.72879" lon="2.01171">
        <ele>1589.68</ele>
        <time>2018-01-31T08:59:41Z</time>
      </trkpt>
      <trkpt lat="42.72879" lon="2.01151">
        <ele>1589.2</ele>
        <time>2018-01-31T08:59:58Z</time>
      </trkpt>
      <trkpt lat="42.72879" lon="2.01136">
        <ele>1588.24</ele>
        <time>2018-01-31T09:00:11Z</time>
      </trkpt>
      <trkpt lat="42.72879" lon="2.01115">
        <ele>1587.75</ele>
        <time>2018-01-31T09:00:29Z</time>
      </trkpt>
      <trkpt lat="42.72879" lon="2.01097">
        <ele>1590.16</ele>
        <time>2018-01-31T09:00:44Z</time>
      </trkpt>
      <trkpt lat="42.7288" lon="2.0108">
        <ele>1589.68</ele>
        <time>2018-01-31T09:00:59Z</time>
      </trkpt>
      <trkpt lat="42.72879" lon="2.0108">
        <ele>1589.68</ele>
        <time>2018-01-31T09:01:00Z</time>
      </trkpt>
      <trkpt lat="42.72874" lon="2.01064">
        <ele>1591.12</ele>
        <time>2018-01-31T09:01:14Z</time>
      </trkpt>
      <trkpt lat="42.72874" lon="2.01044">
        <ele>1594</ele>
        <time>2018-01-31T09:01:31Z</time>
      </trkpt>
      <trkpt lat="42.7287" lon="2.01032">
        <ele>1594.96</ele>
        <time>2018-01-31T09:01:41Z</time>
      </trkpt>
      <trkpt lat="42.72867" lon="2.0101">
        <ele>1597.85</ele>
        <time>2018-01-31T09:01:59Z</time>
      </trkpt>
      <trkpt lat="42.72865" lon="2.0099">
        <ele>1598.33</ele>
        <time>2018-01-31T09:02:14Z</time>
      </trkpt>
      <trkpt lat="42.72866" lon="2.00969">
        <ele>1599.77</ele>
        <time>2018-01-31T09:02:29Z</time>
      </trkpt>
      <trkpt lat="42.72867" lon="2.00955">
        <ele>1598.33</ele>
        <time>2018-01-31T09:02:41Z</time>
      </trkpt>
      <trkpt lat="42.72867" lon="2.00935">
        <ele>1597.85</ele>
        <time>2018-01-31T09:02:56Z</time>
      </trkpt>
      <trkpt lat="42.72868" lon="2.00917">
        <ele>1596.89</ele>
        <time>2018-01-31T09:03:11Z</time>
      </trkpt>
      <trkpt lat="42.72867" lon="2.00904">
        <ele>1596.89</ele>
        <time>2018-01-31T09:03:20Z</time>
      </trkpt>
      <trkpt lat="42.72866" lon="2.00884">
        <ele>1596.41</ele>
        <time>2018-01-31T09:03:34Z</time>
      </trkpt>
      <trkpt lat="42.72864" lon="2.00866">
        <ele>1598.81</ele>
        <time>2018-01-31T09:03:48Z</time>
      </trkpt>
      <trkpt lat="42.7286" lon="2.00851">
        <ele>1598.81</ele>
        <time>2018-01-31T09:04:05Z</time>
      </trkpt>
      <trkpt lat="42.72858" lon="2.00832">
        <ele>1598.81</ele>
        <time>2018-01-31T09:04:20Z</time>
      </trkpt>
      <trkpt lat="42.72857" lon="2.00819">
        <ele>1599.77</ele>
        <time>2018-01-31T09:04:31Z</time>
      </trkpt>
      <trkpt lat="42.72858" lon="2.00802">
        <ele>1600.73</ele>
        <time>2018-01-31T09:04:48Z</time>
      </trkpt>
      <trkpt lat="42.72855" lon="2.00782">
        <ele>1601.21</ele>
        <time>2018-01-31T09:05:04Z</time>
      </trkpt>
      <trkpt lat="42.72849" lon="2.00768">
        <ele>1600.73</ele>
        <time>2018-01-31T09:05:18Z</time>
      </trkpt>
      <trkpt lat="42.72843" lon="2.00749">
        <ele>1601.21</ele>
        <time>2018-01-31T09:05:34Z</time>
      </trkpt>
      <trkpt lat="42.72838" lon="2.00734">
        <ele>1603.14</ele>
        <time>2018-01-31T09:05:46Z</time>
      </trkpt>
      <trkpt lat="42.72833" lon="2.00714">
        <ele>1604.1</ele>
        <time>2018-01-31T09:06:03Z</time>
      </trkpt>
      <trkpt lat="42.72826" lon="2.00697">
        <ele>1605.06</ele>
        <time>2018-01-31T09:06:18Z</time>
      </trkpt>
      <trkpt lat="42.72818" lon="2.00681">
        <ele>1602.66</ele>
        <time>2018-01-31T09:06:33Z</time>
      </trkpt>
      <trkpt lat="42.72813" lon="2.00661">
        <ele>1601.21</ele>
        <time>2018-01-31T09:06:48Z</time>
      </trkpt>
      <trkpt lat="42.72808" lon="2.0064">
        <ele>1601.69</ele>
        <time>2018-01-31T09:07:03Z</time>
      </trkpt>
      <trkpt lat="42.72808" lon="2.00621">
        <ele>1602.66</ele>
        <time>2018-01-31T09:07:16Z</time>
      </trkpt>
      <trkpt lat="42.72808" lon="2.006">
        <ele>1602.66</ele>
        <time>2018-01-31T09:07:30Z</time>
      </trkpt>
      <trkpt lat="42.72816" lon="2.0058">
        <ele>1604.58</ele>
        <time>2018-01-31T09:07:46Z</time>
      </trkpt>
      <trkpt lat="42.72823" lon="2.00561">
        <ele>1603.62</ele>
        <time>2018-01-31T09:08:00Z</time>
      </trkpt>
      <trkpt lat="42.72833" lon="2.00544">
        <ele>1602.17</ele>
        <time>2018-01-31T09:08:15Z</time>
      </trkpt>
      <trkpt lat="42.72833" lon="2.00539">
        <ele>1601.69</ele>
        <time>2018-01-31T09:08:18Z</time>
      </trkpt>
      <trkpt lat="42.72833" lon="2.00537">
        <ele>1601.21</ele>
        <time>2018-01-31T09:08:20Z</time>
      </trkpt>
      <trkpt lat="42.72834" lon="2.00518">
        <ele>1602.66</ele>
        <time>2018-01-31T09:08:36Z</time>
      </trkpt>
      <trkpt lat="42.72825" lon="2.00501">
        <ele>1598.81</ele>
        <time>2018-01-31T09:08:50Z</time>
      </trkpt>
      <trkpt lat="42.72816" lon="2.00489">
        <ele>1598.33</ele>
        <time>2018-01-31T09:09:04Z</time>
      </trkpt>
      <trkpt lat="42.72812" lon="2.00487">
        <ele>1596.41</ele>
        <time>2018-01-31T09:09:21Z</time>
      </trkpt>
      <trkpt lat="42.7281" lon="2.00483">
        <ele>1598.33</ele>
        <time>2018-01-31T09:09:42Z</time>
      </trkpt>
      <trkpt lat="42.72805" lon="2.00475">
        <ele>1598.33</ele>
        <time>2018-01-31T09:09:57Z</time>
      </trkpt>
      <trkpt lat="42.72802" lon="2.00468">
        <ele>1598.81</ele>
        <time>2018-01-31T09:10:04Z</time>
      </trkpt>
      <trkpt lat="42.72795" lon="2.00449">
        <ele>1600.73</ele>
        <time>2018-01-31T09:10:19Z</time>
      </trkpt>
      <trkpt lat="42.72793" lon="2.00432">
        <ele>1600.25</ele>
        <time>2018-01-31T09:10:33Z</time>
      </trkpt>
      <trkpt lat="42.72794" lon="2.00413">
        <ele>1600.25</ele>
        <time>2018-01-31T09:10:51Z</time>
      </trkpt>
      <trkpt lat="42.72793" lon="2.00386">
        <ele>1600.25</ele>
        <time>2018-01-31T09:11:09Z</time>
      </trkpt>
      <trkpt lat="42.72792" lon="2.00363">
        <ele>1603.62</ele>
        <time>2018-01-31T09:11:29Z</time>
      </trkpt>
      <trkpt lat="42.72789" lon="2.00348">
        <ele>1606.5</ele>
        <time>2018-01-31T09:11:47Z</time>
      </trkpt>
      <trkpt lat="42.72795" lon="2.00338">
        <ele>1609.86</ele>
        <time>2018-01-31T09:12:05Z</time>
      </trkpt>
      <trkpt lat="42.72806" lon="2.00327">
        <ele>1613.23</ele>
        <time>2018-01-31T09:12:24Z</time>
      </trkpt>
      <trkpt lat="42.72816" lon="2.00322">
        <ele>1616.59</ele>
        <time>2018-01-31T09:12:43Z</time>
      </trkpt>
      <trkpt lat="42.72824" lon="2.00319">
        <ele>1622.36</ele>
        <time>2018-01-31T09:13:03Z</time>
      </trkpt>
      <trkpt lat="42.72833" lon="2.00311">
        <ele>1624.77</ele>
        <time>2018-01-31T09:13:23Z</time>
      </trkpt>
      <trkpt lat="42.72838" lon="2.00298">
        <ele>1622.36</ele>
        <time>2018-01-31T09:13:41Z</time>
      </trkpt>
      <trkpt lat="42.7284" lon="2.0029">
        <ele>1623.32</ele>
        <time>2018-01-31T09:13:59Z</time>
      </trkpt>
      <trkpt lat="42.72847" lon="2.00297">
        <ele>1626.21</ele>
        <time>2018-01-31T09:14:13Z</time>
      </trkpt>
      <trkpt lat="42.72856" lon="2.00313">
        <ele>1633.9</ele>
        <time>2018-01-31T09:14:31Z</time>
      </trkpt>
      <trkpt lat="42.72857" lon="2.00296">
        <ele>1635.82</ele>
        <time>2018-01-31T09:14:45Z</time>
      </trkpt>
      <trkpt lat="42.72859" lon="2.00281">
        <ele>1640.63</ele>
        <time>2018-01-31T09:15:00Z</time>
      </trkpt>
      <trkpt lat="42.72858" lon="2.00267">
        <ele>1644.95</ele>
        <time>2018-01-31T09:15:15Z</time>
      </trkpt>
      <trkpt lat="42.7286" lon="2.00275">
        <ele>1644.47</ele>
        <time>2018-01-31T09:15:34Z</time>
      </trkpt>
      <trkpt lat="42.72859" lon="2.00273">
        <ele>1639.67</ele>
        <time>2018-01-31T09:15:44Z</time>
      </trkpt>
      <trkpt lat="42.72862" lon="2.00273">
        <ele>1634.38</ele>
        <time>2018-01-31T09:16:04Z</time>
      </trkpt>
      <trkpt lat="42.72862" lon="2.00273">
        <ele>1635.34</ele>
        <time>2018-01-31T09:16:27Z</time>
      </trkpt>
      <trkpt lat="42.7286" lon="2.00272">
        <ele>1633.9</ele>
        <time>2018-01-31T09:16:44Z</time>
      </trkpt>
      <trkpt lat="42.72859" lon="2.00275">
        <ele>1634.86</ele>
        <time>2018-01-31T09:17:08Z</time>
      </trkpt>
      <trkpt lat="42.72859" lon="2.00273">
        <ele>1634.38</ele>
        <time>2018-01-31T09:17:25Z</time>
      </trkpt>
      <trkpt lat="42.72856" lon="2.00264">
        <ele>1636.3</ele>
        <time>2018-01-31T09:17:36Z</time>
      </trkpt>
      <trkpt lat="42.72854" lon="2.0025">
        <ele>1638.7</ele>
        <time>2018-01-31T09:17:51Z</time>
      </trkpt>
      <trkpt lat="42.72855" lon="2.00236">
        <ele>1641.11</ele>
        <time>2018-01-31T09:18:05Z</time>
      </trkpt>
      <trkpt lat="42.72857" lon="2.00229">
        <ele>1644.47</ele>
        <time>2018-01-31T09:18:21Z</time>
      </trkpt>
      <trkpt lat="42.72859" lon="2.0022">
        <ele>1644.47</ele>
        <time>2018-01-31T09:18:38Z</time>
      </trkpt>
      <trkpt lat="42.72859" lon="2.00222">
        <ele>1649.28</ele>
        <time>2018-01-31T09:18:51Z</time>
      </trkpt>
      <trkpt lat="42.72861" lon="2.00222">
        <ele>1651.2</ele>
        <time>2018-01-31T09:19:13Z</time>
      </trkpt>
      <trkpt lat="42.72867" lon="2.00223">
        <ele>1652.16</ele>
        <time>2018-01-31T09:19:27Z</time>
      </trkpt>
      <trkpt lat="42.72871" lon="2.00216">
        <ele>1650.24</ele>
        <time>2018-01-31T09:19:41Z</time>
      </trkpt>
      <trkpt lat="42.72872" lon="2.00222">
        <ele>1655.53</ele>
        <time>2018-01-31T09:19:57Z</time>
      </trkpt>
      <trkpt lat="42.72874" lon="2.00219">
        <ele>1656.49</ele>
        <time>2018-01-31T09:20:11Z</time>
      </trkpt>
      <trkpt lat="42.72883" lon="2.00218">
        <ele>1660.33</ele>
        <time>2018-01-31T09:20:26Z</time>
      </trkpt>
      <trkpt lat="42.72885" lon="2.00215">
        <ele>1663.22</ele>
        <time>2018-01-31T09:20:40Z</time>
      </trkpt>
      <trkpt lat="42.72888" lon="2.00214">
        <ele>1665.14</ele>
        <time>2018-01-31T09:20:51Z</time>
      </trkpt>
      <trkpt lat="42.72892" lon="2.00209">
        <ele>1669.95</ele>
        <time>2018-01-31T09:21:05Z</time>
      </trkpt>
      <trkpt lat="42.72902" lon="2.0021">
        <ele>1675.72</ele>
        <time>2018-01-31T09:21:20Z</time>
      </trkpt>
      <trkpt lat="42.72907" lon="2.0021">
        <ele>1676.68</ele>
        <time>2018-01-31T09:21:33Z</time>
      </trkpt>
      <trkpt lat="42.72911" lon="2.00207">
        <ele>1676.68</ele>
        <time>2018-01-31T09:21:47Z</time>
      </trkpt>
      <trkpt lat="42.72914" lon="2.00209">
        <ele>1677.16</ele>
        <time>2018-01-31T09:22:13Z</time>
      </trkpt>
      <trkpt lat="42.72919" lon="2.00209">
        <ele>1673.79</ele>
        <time>2018-01-31T09:22:35Z</time>
      </trkpt>
      <trkpt lat="42.72929" lon="2.00208">
        <ele>1674.75</ele>
        <time>2018-01-31T09:22:50Z</time>
      </trkpt>
      <trkpt lat="42.72935" lon="2.00204">
        <ele>1678.6</ele>
        <time>2018-01-31T09:23:04Z</time>
      </trkpt>
      <trkpt lat="42.72941" lon="2.002">
        <ele>1678.12</ele>
        <time>2018-01-31T09:23:20Z</time>
      </trkpt>
      <trkpt lat="42.72945" lon="2.00197">
        <ele>1678.6</ele>
        <time>2018-01-31T09:23:32Z</time>
      </trkpt>
      <trkpt lat="42.72954" lon="2.00189">
        <ele>1682.44</ele>
        <time>2018-01-31T09:23:47Z</time>
      </trkpt>
      <trkpt lat="42.72956" lon="2.00181">
        <ele>1686.29</ele>
        <time>2018-01-31T09:24:00Z</time>
      </trkpt>
      <trkpt lat="42.72954" lon="2.00178">
        <ele>1691.58</ele>
        <time>2018-01-31T09:24:18Z</time>
      </trkpt>
      <trkpt lat="42.72951" lon="2.00169">
        <ele>1697.34</ele>
        <time>2018-01-31T09:24:31Z</time>
      </trkpt>
      <trkpt lat="42.72949" lon="2.00156">
        <ele>1701.67</ele>
        <time>2018-01-31T09:24:44Z</time>
      </trkpt>
      <trkpt lat="42.7295" lon="2.00142">
        <ele>1699.75</ele>
        <time>2018-01-31T09:24:57Z</time>
      </trkpt>
      <trkpt lat="42.72951" lon="2.00138">
        <ele>1701.19</ele>
        <time>2018-01-31T09:25:11Z</time>
      </trkpt>
      <trkpt lat="42.72948" lon="2.00127">
        <ele>1707.92</ele>
        <time>2018-01-31T09:25:25Z</time>
      </trkpt>
      <trkpt lat="42.72944" lon="2.00113">
        <ele>1709.36</ele>
        <time>2018-01-31T09:25:40Z</time>
      </trkpt>
      <trkpt lat="42.72942" lon="2.00099">
        <ele>1707.92</ele>
        <time>2018-01-31T09:25:54Z</time>
      </trkpt>
      <trkpt lat="42.72946" lon="2.00094">
        <ele>1707.92</ele>
        <time>2018-01-31T09:26:07Z</time>
      </trkpt>
      <trkpt lat="42.72952" lon="2.00099">
        <ele>1706</ele>
        <time>2018-01-31T09:26:23Z</time>
      </trkpt>
      <trkpt lat="42.7296" lon="2.001">
        <ele>1708.88</ele>
        <time>2018-01-31T09:26:37Z</time>
      </trkpt>
      <trkpt lat="42.72958" lon="2.00091">
        <ele>1713.69</ele>
        <time>2018-01-31T09:26:52Z</time>
      </trkpt>
      <trkpt lat="42.72953" lon="2.00078">
        <ele>1716.09</ele>
        <time>2018-01-31T09:27:08Z</time>
      </trkpt>
      <trkpt lat="42.72951" lon="2.00066">
        <ele>1715.61</ele>
        <time>2018-01-31T09:27:23Z</time>
      </trkpt>
      <trkpt lat="42.72951" lon="2.00058">
        <ele>1716.57</ele>
        <time>2018-01-31T09:27:36Z</time>
      </trkpt>
      <trkpt lat="42.72951" lon="2.00046">
        <ele>1717.53</ele>
        <time>2018-01-31T09:27:49Z</time>
      </trkpt>
      <trkpt lat="42.72953" lon="2.00036">
        <ele>1718.49</ele>
        <time>2018-01-31T09:28:02Z</time>
      </trkpt>
      <trkpt lat="42.72958" lon="2.00027">
        <ele>1720.9</ele>
        <time>2018-01-31T09:28:16Z</time>
      </trkpt>
      <trkpt lat="42.72964" lon="2.00019">
        <ele>1722.82</ele>
        <time>2018-01-31T09:28:32Z</time>
      </trkpt>
      <trkpt lat="42.72973" lon="2.00015">
        <ele>1726.18</ele>
        <time>2018-01-31T09:28:47Z</time>
      </trkpt>
      <trkpt lat="42.72978" lon="2.00015">
        <ele>1729.55</ele>
        <time>2018-01-31T09:29:01Z</time>
      </trkpt>
      <trkpt lat="42.72988" lon="2.00016">
        <ele>1734.84</ele>
        <time>2018-01-31T09:29:16Z</time>
      </trkpt>
      <trkpt lat="42.72996" lon="2.00019">
        <ele>1737.72</ele>
        <time>2018-01-31T09:29:30Z</time>
      </trkpt>
      <trkpt lat="42.73002" lon="2.0002">
        <ele>1742.53</ele>
        <time>2018-01-31T09:29:44Z</time>
      </trkpt>
      <trkpt lat="42.73012" lon="2.00019">
        <ele>1744.45</ele>
        <time>2018-01-31T09:29:59Z</time>
      </trkpt>
      <trkpt lat="42.73014" lon="2.00019">
        <ele>1747.81</ele>
        <time>2018-01-31T09:30:18Z</time>
      </trkpt>
      <trkpt lat="42.73014" lon="2.0002">
        <ele>1748.78</ele>
        <time>2018-01-31T09:30:46Z</time>
      </trkpt>
      <trkpt lat="42.73019" lon="2.00019">
        <ele>1750.22</ele>
        <time>2018-01-31T09:30:56Z</time>
      </trkpt>
      <trkpt lat="42.73027" lon="2.00019">
        <ele>1751.66</ele>
        <time>2018-01-31T09:31:10Z</time>
      </trkpt>
      <trkpt lat="42.73034" lon="2.00016">
        <ele>1753.58</ele>
        <time>2018-01-31T09:31:23Z</time>
      </trkpt>
      <trkpt lat="42.7304" lon="2.00021">
        <ele>1757.43</ele>
        <time>2018-01-31T09:31:41Z</time>
      </trkpt>
      <trkpt lat="42.73044" lon="2.00019">
        <ele>1761.27</ele>
        <time>2018-01-31T09:31:54Z</time>
      </trkpt>
      <trkpt lat="42.73048" lon="2.00013">
        <ele>1761.27</ele>
        <time>2018-01-31T09:32:07Z</time>
      </trkpt>
      <trkpt lat="42.7305" lon="2.00014">
        <ele>1759.83</ele>
        <time>2018-01-31T09:32:20Z</time>
      </trkpt>
      <trkpt lat="42.73052" lon="2.00018">
        <ele>1762.71</ele>
        <time>2018-01-31T09:32:33Z</time>
      </trkpt>
      <trkpt lat="42.73058" lon="2.00028">
        <ele>1765.12</ele>
        <time>2018-01-31T09:32:50Z</time>
      </trkpt>
      <trkpt lat="42.73062" lon="2.00025">
        <ele>1766.56</ele>
        <time>2018-01-31T09:33:07Z</time>
      </trkpt>
      <trkpt lat="42.73066" lon="2.00019">
        <ele>1770.41</ele>
        <time>2018-01-31T09:33:19Z</time>
      </trkpt>
      <trkpt lat="42.73072" lon="2.0001">
        <ele>1772.33</ele>
        <time>2018-01-31T09:33:33Z</time>
      </trkpt>
      <trkpt lat="42.73081" lon="2.00003">
        <ele>1774.25</ele>
        <time>2018-01-31T09:33:49Z</time>
      </trkpt>
      <trkpt lat="42.73085" lon="1.99997">
        <ele>1777.13</ele>
        <time>2018-01-31T09:34:00Z</time>
      </trkpt>
      <trkpt lat="42.73093" lon="1.99987">
        <ele>1779.54</ele>
        <time>2018-01-31T09:34:16Z</time>
      </trkpt>
      <trkpt lat="42.73094" lon="1.99987">
        <ele>1780.02</ele>
        <time>2018-01-31T09:34:36Z</time>
      </trkpt>
      <trkpt lat="42.73096" lon="1.99987">
        <ele>1781.46</ele>
        <time>2018-01-31T09:35:01Z</time>
      </trkpt>
      <trkpt lat="42.73099" lon="1.99986">
        <ele>1782.42</ele>
        <time>2018-01-31T09:35:28Z</time>
      </trkpt>
      <trkpt lat="42.73105" lon="1.9998">
        <ele>1786.27</ele>
        <time>2018-01-31T09:35:40Z</time>
      </trkpt>
      <trkpt lat="42.73109" lon="1.99972">
        <ele>1787.71</ele>
        <time>2018-01-31T09:35:54Z</time>
      </trkpt>
      <trkpt lat="42.73113" lon="1.99963">
        <ele>1787.71</ele>
        <time>2018-01-31T09:36:08Z</time>
      </trkpt>
      <trkpt lat="42.73119" lon="1.99966">
        <ele>1791.07</ele>
        <time>2018-01-31T09:36:22Z</time>
      </trkpt>
      <trkpt lat="42.73127" lon="1.99972">
        <ele>1794.92</ele>
        <time>2018-01-31T09:36:39Z</time>
      </trkpt>
      <trkpt lat="42.73136" lon="1.99976">
        <ele>1797.32</ele>
        <time>2018-01-31T09:36:56Z</time>
      </trkpt>
      <trkpt lat="42.73145" lon="1.99974">
        <ele>1802.61</ele>
        <time>2018-01-31T09:37:12Z</time>
      </trkpt>
      <trkpt lat="42.73153" lon="1.99972">
        <ele>1806.45</ele>
        <time>2018-01-31T09:37:28Z</time>
      </trkpt>
      <trkpt lat="42.73165" lon="1.99971">
        <ele>1810.3</ele>
        <time>2018-01-31T09:37:47Z</time>
      </trkpt>
      <trkpt lat="42.73174" lon="1.99967">
        <ele>1813.66</ele>
        <time>2018-01-31T09:38:02Z</time>
      </trkpt>
      <trkpt lat="42.73179" lon="1.99961">
        <ele>1815.11</ele>
        <time>2018-01-31T09:38:17Z</time>
      </trkpt>
      <trkpt lat="42.73183" lon="1.99957">
        <ele>1815.59</ele>
        <time>2018-01-31T09:38:30Z</time>
      </trkpt>
      <trkpt lat="42.73184" lon="1.99957">
        <ele>1817.99</ele>
        <time>2018-01-31T09:38:43Z</time>
      </trkpt>
      <trkpt lat="42.73184" lon="1.99955">
        <ele>1816.55</ele>
        <time>2018-01-31T09:38:58Z</time>
      </trkpt>
      <trkpt lat="42.73183" lon="1.99956">
        <ele>1815.59</ele>
        <time>2018-01-31T09:39:25Z</time>
      </trkpt>
      <trkpt lat="42.73181" lon="1.99957">
        <ele>1814.63</ele>
        <time>2018-01-31T09:39:37Z</time>
      </trkpt>
      <trkpt lat="42.73183" lon="1.99955">
        <ele>1817.51</ele>
        <time>2018-01-31T09:40:11Z</time>
      </trkpt>
      <trkpt lat="42.73183" lon="1.99954">
        <ele>1818.47</ele>
        <time>2018-01-31T09:40:29Z</time>
      </trkpt>
      <trkpt lat="42.73184" lon="1.99953">
        <ele>1819.43</ele>
        <time>2018-01-31T09:40:58Z</time>
      </trkpt>
      <trkpt lat="42.73184" lon="1.99955">
        <ele>1818.95</ele>
        <time>2018-01-31T09:41:15Z</time>
      </trkpt>
      <trkpt lat="42.73183" lon="1.99954">
        <ele>1817.51</ele>
        <time>2018-01-31T09:41:39Z</time>
      </trkpt>
      <trkpt lat="42.73181" lon="1.99955">
        <ele>1812.22</ele>
        <time>2018-01-31T09:41:56Z</time>
      </trkpt>
      <trkpt lat="42.73181" lon="1.99954">
        <ele>1814.15</ele>
        <time>2018-01-31T09:42:14Z</time>
      </trkpt>
      <trkpt lat="42.7318" lon="1.99954">
        <ele>1810.78</ele>
        <time>2018-01-31T09:42:31Z</time>
      </trkpt>
      <trkpt lat="42.7318" lon="1.99954">
        <ele>1809.82</ele>
        <time>2018-01-31T09:42:43Z</time>
      </trkpt>
      <trkpt lat="42.73188" lon="1.99952">
        <ele>1812.7</ele>
        <time>2018-01-31T09:42:53Z</time>
      </trkpt>
      <trkpt lat="42.73197" lon="1.9995">
        <ele>1816.07</ele>
        <time>2018-01-31T09:43:07Z</time>
      </trkpt>
      <trkpt lat="42.73206" lon="1.99951">
        <ele>1818.95</ele>
        <time>2018-01-31T09:43:20Z</time>
      </trkpt>
      <trkpt lat="42.73214" lon="1.99952">
        <ele>1819.91</ele>
        <time>2018-01-31T09:43:32Z</time>
      </trkpt>
      <trkpt lat="42.73224" lon="1.99955">
        <ele>1821.35</ele>
        <time>2018-01-31T09:43:46Z</time>
      </trkpt>
      <trkpt lat="42.73232" lon="1.99957">
        <ele>1822.8</ele>
        <time>2018-01-31T09:43:58Z</time>
      </trkpt>
      <trkpt lat="42.73241" lon="1.99961">
        <ele>1826.16</ele>
        <time>2018-01-31T09:44:13Z</time>
      </trkpt>
      <trkpt lat="42.73248" lon="1.99966">
        <ele>1828.56</ele>
        <time>2018-01-31T09:44:26Z</time>
      </trkpt>
      <trkpt lat="42.73255" lon="1.99973">
        <ele>1830.97</ele>
        <time>2018-01-31T09:44:40Z</time>
      </trkpt>
      <trkpt lat="42.73261" lon="1.99978">
        <ele>1832.89</ele>
        <time>2018-01-31T09:44:53Z</time>
      </trkpt>
      <trkpt lat="42.73267" lon="1.99984">
        <ele>1835.29</ele>
        <time>2018-01-31T09:45:07Z</time>
      </trkpt>
      <trkpt lat="42.73272" lon="1.99992">
        <ele>1837.22</ele>
        <time>2018-01-31T09:45:20Z</time>
      </trkpt>
      <trkpt lat="42.73279" lon="1.99996">
        <ele>1840.1</ele>
        <time>2018-01-31T09:45:33Z</time>
      </trkpt>
      <trkpt lat="42.73288" lon="1.99997">
        <ele>1841.06</ele>
        <time>2018-01-31T09:45:48Z</time>
      </trkpt>
      <trkpt lat="42.73294" lon="1.99993">
        <ele>1843.95</ele>
        <time>2018-01-31T09:46:00Z</time>
      </trkpt>
      <trkpt lat="42.73301" lon="1.99987">
        <ele>1846.83</ele>
        <time>2018-01-31T09:46:14Z</time>
      </trkpt>
      <trkpt lat="42.73307" lon="1.99981">
        <ele>1848.27</ele>
        <time>2018-01-31T09:46:26Z</time>
      </trkpt>
      <trkpt lat="42.73313" lon="1.99976">
        <ele>1850.19</ele>
        <time>2018-01-31T09:46:39Z</time>
      </trkpt>
      <trkpt lat="42.7332" lon="1.99968">
        <ele>1852.6</ele>
        <time>2018-01-31T09:46:53Z</time>
      </trkpt>
      <trkpt lat="42.73325" lon="1.9996">
        <ele>1853.56</ele>
        <time>2018-01-31T09:47:06Z</time>
      </trkpt>
      <trkpt lat="42.73329" lon="1.99953">
        <ele>1855.48</ele>
        <time>2018-01-31T09:47:19Z</time>
      </trkpt>
      <trkpt lat="42.73332" lon="1.99945">
        <ele>1857.4</ele>
        <time>2018-01-31T09:47:32Z</time>
      </trkpt>
      <trkpt lat="42.73339" lon="1.99946">
        <ele>1860.77</ele>
        <time>2018-01-31T09:47:46Z</time>
      </trkpt>
      <trkpt lat="42.73346" lon="1.99948">
        <ele>1863.17</ele>
        <time>2018-01-31T09:48:00Z</time>
      </trkpt>
      <trkpt lat="42.73354" lon="1.99953">
        <ele>1866.54</ele>
        <time>2018-01-31T09:48:15Z</time>
      </trkpt>
      <trkpt lat="42.73361" lon="1.99956">
        <ele>1868.46</ele>
        <time>2018-01-31T09:48:29Z</time>
      </trkpt>
      <trkpt lat="42.73366" lon="1.99953">
        <ele>1870.86</ele>
        <time>2018-01-31T09:48:42Z</time>
      </trkpt>
      <trkpt lat="42.7337" lon="1.99945">
        <ele>1872.79</ele>
        <time>2018-01-31T09:48:54Z</time>
      </trkpt>
      <trkpt lat="42.73372" lon="1.99941">
        <ele>1874.71</ele>
        <time>2018-01-31T09:49:04Z</time>
      </trkpt>
      <trkpt lat="42.73378" lon="1.99942">
        <ele>1877.11</ele>
        <time>2018-01-31T09:49:18Z</time>
      </trkpt>
      <trkpt lat="42.73386" lon="1.99946">
        <ele>1880.96</ele>
        <time>2018-01-31T09:49:32Z</time>
      </trkpt>
      <trkpt lat="42.73394" lon="1.99951">
        <ele>1882.88</ele>
        <time>2018-01-31T09:49:47Z</time>
      </trkpt>
      <trkpt lat="42.73398" lon="1.99953">
        <ele>1884.8</ele>
        <time>2018-01-31T09:50:01Z</time>
      </trkpt>
      <trkpt lat="42.73399" lon="1.99954">
        <ele>1885.76</ele>
        <time>2018-01-31T09:50:27Z</time>
      </trkpt>
      <trkpt lat="42.73398" lon="1.99953">
        <ele>1885.28</ele>
        <time>2018-01-31T09:50:47Z</time>
      </trkpt>
      <trkpt lat="42.73404" lon="1.99957">
        <ele>1886.24</ele>
        <time>2018-01-31T09:51:03Z</time>
      </trkpt>
      <trkpt lat="42.73405" lon="1.99958">
        <ele>1885.76</ele>
        <time>2018-01-31T09:51:18Z</time>
      </trkpt>
      <trkpt lat="42.73411" lon="1.99963">
        <ele>1887.69</ele>
        <time>2018-01-31T09:51:31Z</time>
      </trkpt>
      <trkpt lat="42.73417" lon="1.99964">
        <ele>1891.05</ele>
        <time>2018-01-31T09:51:43Z</time>
      </trkpt>
      <trkpt lat="42.73422" lon="1.9996">
        <ele>1893.45</ele>
        <time>2018-01-31T09:51:56Z</time>
      </trkpt>
      <trkpt lat="42.73427" lon="1.99964">
        <ele>1896.34</ele>
        <time>2018-01-31T09:52:06Z</time>
      </trkpt>
      <trkpt lat="42.73432" lon="1.9997">
        <ele>1898.74</ele>
        <time>2018-01-31T09:52:18Z</time>
      </trkpt>
      <trkpt lat="42.73437" lon="1.99975">
        <ele>1900.66</ele>
        <time>2018-01-31T09:52:32Z</time>
      </trkpt>
      <trkpt lat="42.73443" lon="1.99978">
        <ele>1903.07</ele>
        <time>2018-01-31T09:52:46Z</time>
      </trkpt>
      <trkpt lat="42.73449" lon="1.99977">
        <ele>1906.43</ele>
        <time>2018-01-31T09:52:59Z</time>
      </trkpt>
      <trkpt lat="42.73455" lon="1.99973">
        <ele>1909.8</ele>
        <time>2018-01-31T09:53:12Z</time>
      </trkpt>
      <trkpt lat="42.73462" lon="1.99971">
        <ele>1913.16</ele>
        <time>2018-01-31T09:53:25Z</time>
      </trkpt>
      <trkpt lat="42.73469" lon="1.9997">
        <ele>1915.56</ele>
        <time>2018-01-31T09:53:40Z</time>
      </trkpt>
      <trkpt lat="42.73475" lon="1.99969">
        <ele>1916.04</ele>
        <time>2018-01-31T09:53:51Z</time>
      </trkpt>
      <trkpt lat="42.73482" lon="1.9997">
        <ele>1918.93</ele>
        <time>2018-01-31T09:54:05Z</time>
      </trkpt>
      <trkpt lat="42.7349" lon="1.99973">
        <ele>1921.33</ele>
        <time>2018-01-31T09:54:19Z</time>
      </trkpt>
      <trkpt lat="42.73496" lon="1.99978">
        <ele>1923.74</ele>
        <time>2018-01-31T09:54:34Z</time>
      </trkpt>
      <trkpt lat="42.73503" lon="1.99982">
        <ele>1925.18</ele>
        <time>2018-01-31T09:54:47Z</time>
      </trkpt>
      <trkpt lat="42.73507" lon="1.99984">
        <ele>1927.58</ele>
        <time>2018-01-31T09:54:57Z</time>
      </trkpt>
      <trkpt lat="42.73512" lon="1.99987">
        <ele>1929.5</ele>
        <time>2018-01-31T09:55:09Z</time>
      </trkpt>
      <trkpt lat="42.73516" lon="1.9999">
        <ele>1931.43</ele>
        <time>2018-01-31T09:55:24Z</time>
      </trkpt>
      <trkpt lat="42.7352" lon="1.99995">
        <ele>1935.27</ele>
        <time>2018-01-31T09:55:37Z</time>
      </trkpt>
      <trkpt lat="42.73526" lon="2.00001">
        <ele>1938.64</ele>
        <time>2018-01-31T09:55:50Z</time>
      </trkpt>
      <trkpt lat="42.7353" lon="2.00008">
        <ele>1940.56</ele>
        <time>2018-01-31T09:56:05Z</time>
      </trkpt>
      <trkpt lat="42.73533" lon="2.0002">
        <ele>1942.96</ele>
        <time>2018-01-31T09:56:21Z</time>
      </trkpt>
      <trkpt lat="42.73535" lon="2.00031">
        <ele>1944.4</ele>
        <time>2018-01-31T09:56:36Z</time>
      </trkpt>
      <trkpt lat="42.73538" lon="2.00038">
        <ele>1946.33</ele>
        <time>2018-01-31T09:56:49Z</time>
      </trkpt>
      <trkpt lat="42.7354" lon="2.00043">
        <ele>1946.33</ele>
        <time>2018-01-31T09:57:06Z</time>
      </trkpt>
      <trkpt lat="42.73546" lon="2.0005">
        <ele>1948.73</ele>
        <time>2018-01-31T09:57:20Z</time>
      </trkpt>
      <trkpt lat="42.73552" lon="2.00047">
        <ele>1949.21</ele>
        <time>2018-01-31T09:57:35Z</time>
      </trkpt>
      <trkpt lat="42.73559" lon="2.00038">
        <ele>1951.61</ele>
        <time>2018-01-31T09:57:49Z</time>
      </trkpt>
      <trkpt lat="42.73566" lon="2.00031">
        <ele>1954.5</ele>
        <time>2018-01-31T09:58:03Z</time>
      </trkpt>
      <trkpt lat="42.73569" lon="2.00026">
        <ele>1955.94</ele>
        <time>2018-01-31T09:58:10Z</time>
      </trkpt>
      <trkpt lat="42.73575" lon="2.00015">
        <ele>1957.86</ele>
        <time>2018-01-31T09:58:24Z</time>
      </trkpt>
      <trkpt lat="42.7358" lon="2.00005">
        <ele>1958.34</ele>
        <time>2018-01-31T09:58:38Z</time>
      </trkpt>
      <trkpt lat="42.73585" lon="1.99995">
        <ele>1959.78</ele>
        <time>2018-01-31T09:58:52Z</time>
      </trkpt>
      <trkpt lat="42.73588" lon="1.99988">
        <ele>1961.71</ele>
        <time>2018-01-31T09:59:11Z</time>
      </trkpt>
      <trkpt lat="42.73594" lon="1.99977">
        <ele>1963.63</ele>
        <time>2018-01-31T09:59:25Z</time>
      </trkpt>
      <trkpt lat="42.73596" lon="1.99969">
        <ele>1965.07</ele>
        <time>2018-01-31T09:59:39Z</time>
      </trkpt>
      <trkpt lat="42.73597" lon="1.99968">
        <ele>1966.03</ele>
        <time>2018-01-31T10:00:06Z</time>
      </trkpt>
      <trkpt lat="42.73599" lon="1.99964">
        <ele>1967.48</ele>
        <time>2018-01-31T10:00:31Z</time>
      </trkpt>
      <trkpt lat="42.73603" lon="1.99953">
        <ele>1968.44</ele>
        <time>2018-01-31T10:00:44Z</time>
      </trkpt>
      <trkpt lat="42.73607" lon="1.99943">
        <ele>1969.4</ele>
        <time>2018-01-31T10:00:58Z</time>
      </trkpt>
      <trkpt lat="42.73608" lon="1.99941">
        <ele>1969.88</ele>
        <time>2018-01-31T10:01:13Z</time>
      </trkpt>
      <trkpt lat="42.73612" lon="1.99933">
        <ele>1971.32</ele>
        <time>2018-01-31T10:01:29Z</time>
      </trkpt>
      <trkpt lat="42.73617" lon="1.99924">
        <ele>1972.76</ele>
        <time>2018-01-31T10:01:41Z</time>
      </trkpt>
      <trkpt lat="42.73622" lon="1.99911">
        <ele>1975.17</ele>
        <time>2018-01-31T10:01:55Z</time>
      </trkpt>
      <trkpt lat="42.73628" lon="1.999">
        <ele>1977.57</ele>
        <time>2018-01-31T10:02:09Z</time>
      </trkpt>
      <trkpt lat="42.73636" lon="1.9989">
        <ele>1978.05</ele>
        <time>2018-01-31T10:02:22Z</time>
      </trkpt>
      <trkpt lat="42.73642" lon="1.99881">
        <ele>1979.01</ele>
        <time>2018-01-31T10:02:35Z</time>
      </trkpt>
      <trkpt lat="42.73651" lon="1.99869">
        <ele>1980.93</ele>
        <time>2018-01-31T10:02:50Z</time>
      </trkpt>
      <trkpt lat="42.73656" lon="1.99862">
        <ele>1981.41</ele>
        <time>2018-01-31T10:02:59Z</time>
      </trkpt>
      <trkpt lat="42.73665" lon="1.99851">
        <ele>1982.86</ele>
        <time>2018-01-31T10:03:14Z</time>
      </trkpt>
      <trkpt lat="42.73672" lon="1.99845">
        <ele>1982.86</ele>
        <time>2018-01-31T10:03:25Z</time>
      </trkpt>
      <trkpt lat="42.73682" lon="1.99838">
        <ele>1982.86</ele>
        <time>2018-01-31T10:03:38Z</time>
      </trkpt>
      <trkpt lat="42.7369" lon="1.99833">
        <ele>1983.82</ele>
        <time>2018-01-31T10:03:50Z</time>
      </trkpt>
      <trkpt lat="42.73698" lon="1.99827">
        <ele>1985.74</ele>
        <time>2018-01-31T10:04:02Z</time>
      </trkpt>
      <trkpt lat="42.73703" lon="1.99823">
        <ele>1987.66</ele>
        <time>2018-01-31T10:04:14Z</time>
      </trkpt>
      <trkpt lat="42.73713" lon="1.99816">
        <ele>1988.62</ele>
        <time>2018-01-31T10:04:28Z</time>
      </trkpt>
      <trkpt lat="42.73719" lon="1.99813">
        <ele>1991.03</ele>
        <time>2018-01-31T10:04:39Z</time>
      </trkpt>
      <trkpt lat="42.73729" lon="1.99808">
        <ele>1991.51</ele>
        <time>2018-01-31T10:04:55Z</time>
      </trkpt>
      <trkpt lat="42.73737" lon="1.99808">
        <ele>1991.99</ele>
        <time>2018-01-31T10:05:08Z</time>
      </trkpt>
      <trkpt lat="42.73738" lon="1.99809">
        <ele>1987.66</ele>
        <time>2018-01-31T10:05:41Z</time>
      </trkpt>
      <trkpt lat="42.73737" lon="1.99809">
        <ele>1984.3</ele>
        <time>2018-01-31T10:06:21Z</time>
      </trkpt>
      <trkpt lat="42.73737" lon="1.99808">
        <ele>1983.34</ele>
        <time>2018-01-31T10:06:57Z</time>
      </trkpt>
      <trkpt lat="42.73739" lon="1.99808">
        <ele>1984.3</ele>
        <time>2018-01-31T10:07:21Z</time>
      </trkpt>
      <trkpt lat="42.73739" lon="1.99808">
        <ele>1984.78</ele>
        <time>2018-01-31T10:07:53Z</time>
      </trkpt>
      <trkpt lat="42.73748" lon="1.99806">
        <ele>1985.26</ele>
        <time>2018-01-31T10:08:05Z</time>
      </trkpt>
      <trkpt lat="42.73754" lon="1.99805">
        <ele>1985.74</ele>
        <time>2018-01-31T10:08:13Z</time>
      </trkpt>
      <trkpt lat="42.73765" lon="1.99805">
        <ele>1987.18</ele>
        <time>2018-01-31T10:08:27Z</time>
      </trkpt>
      <trkpt lat="42.73776" lon="1.99804">
        <ele>1988.62</ele>
        <time>2018-01-31T10:08:41Z</time>
      </trkpt>
      <trkpt lat="42.73787" lon="1.99803">
        <ele>1990.07</ele>
        <time>2018-01-31T10:08:56Z</time>
      </trkpt>
      <trkpt lat="42.73796" lon="1.99804">
        <ele>1991.99</ele>
        <time>2018-01-31T10:09:09Z</time>
      </trkpt>
      <trkpt lat="42.73805" lon="1.99804">
        <ele>1993.43</ele>
        <time>2018-01-31T10:09:22Z</time>
      </trkpt>
      <trkpt lat="42.73816" lon="1.99804">
        <ele>1995.35</ele>
        <time>2018-01-31T10:09:36Z</time>
      </trkpt>
      <trkpt lat="42.73823" lon="1.99803">
        <ele>1996.32</ele>
        <time>2018-01-31T10:09:45Z</time>
      </trkpt>
      <trkpt lat="42.73832" lon="1.99799">
        <ele>1998.24</ele>
        <time>2018-01-31T10:09:58Z</time>
      </trkpt>
      <trkpt lat="42.73843" lon="1.99793">
        <ele>1999.2</ele>
        <time>2018-01-31T10:10:13Z</time>
      </trkpt>
      <trkpt lat="42.73853" lon="1.99786">
        <ele>2000.64</ele>
        <time>2018-01-31T10:10:28Z</time>
      </trkpt>
      <trkpt lat="42.73863" lon="1.99779">
        <ele>2001.12</ele>
        <time>2018-01-31T10:10:43Z</time>
      </trkpt>
      <trkpt lat="42.73874" lon="1.99772">
        <ele>2002.08</ele>
        <time>2018-01-31T10:10:58Z</time>
      </trkpt>
      <trkpt lat="42.73884" lon="1.99766">
        <ele>2004.01</ele>
        <time>2018-01-31T10:11:13Z</time>
      </trkpt>
      <trkpt lat="42.73894" lon="1.99758">
        <ele>2004.97</ele>
        <time>2018-01-31T10:11:28Z</time>
      </trkpt>
      <trkpt lat="42.73904" lon="1.99749">
        <ele>2005.45</ele>
        <time>2018-01-31T10:11:42Z</time>
      </trkpt>
      <trkpt lat="42.73906" lon="1.99748">
        <ele>2005.45</ele>
        <time>2018-01-31T10:11:44Z</time>
      </trkpt>
      <trkpt lat="42.7391" lon="1.99745">
        <ele>2005.45</ele>
        <time>2018-01-31T10:11:50Z</time>
      </trkpt>
      <trkpt lat="42.7392" lon="1.99737">
        <ele>2006.41</ele>
        <time>2018-01-31T10:12:04Z</time>
      </trkpt>
      <trkpt lat="42.73932" lon="1.9973">
        <ele>2006.41</ele>
        <time>2018-01-31T10:12:18Z</time>
      </trkpt>
      <trkpt lat="42.73941" lon="1.99726">
        <ele>2007.37</ele>
        <time>2018-01-31T10:12:29Z</time>
      </trkpt>
      <trkpt lat="42.7395" lon="1.99723">
        <ele>2006.41</ele>
        <time>2018-01-31T10:12:38Z</time>
      </trkpt>
      <trkpt lat="42.73962" lon="1.9972">
        <ele>2005.45</ele>
        <time>2018-01-31T10:12:50Z</time>
      </trkpt>
      <trkpt lat="42.73972" lon="1.99716">
        <ele>2004.49</ele>
        <time>2018-01-31T10:13:05Z</time>
      </trkpt>
      <trkpt lat="42.73981" lon="1.99711">
        <ele>2004.01</ele>
        <time>2018-01-31T10:13:18Z</time>
      </trkpt>
      <trkpt lat="42.73982" lon="1.99711">
        <ele>2004.01</ele>
        <time>2018-01-31T10:13:37Z</time>
      </trkpt>
      <trkpt lat="42.73984" lon="1.99708">
        <ele>2004.01</ele>
        <time>2018-01-31T10:14:01Z</time>
      </trkpt>
      <trkpt lat="42.73984" lon="1.99709">
        <ele>2003.52</ele>
        <time>2018-01-31T10:14:41Z</time>
      </trkpt>
      <trkpt lat="42.73984" lon="1.99708">
        <ele>2003.52</ele>
        <time>2018-01-31T10:15:04Z</time>
      </trkpt>
      <trkpt lat="42.73991" lon="1.99706">
        <ele>2004.97</ele>
        <time>2018-01-31T10:15:16Z</time>
      </trkpt>
      <trkpt lat="42.74001" lon="1.99707">
        <ele>2006.41</ele>
        <time>2018-01-31T10:15:29Z</time>
      </trkpt>
      <trkpt lat="42.74009" lon="1.9971">
        <ele>2008.33</ele>
        <time>2018-01-31T10:15:42Z</time>
      </trkpt>
      <trkpt lat="42.74018" lon="1.99713">
        <ele>2010.25</ele>
        <time>2018-01-31T10:15:55Z</time>
      </trkpt>
      <trkpt lat="42.74027" lon="1.99716">
        <ele>2011.7</ele>
        <time>2018-01-31T10:16:09Z</time>
      </trkpt>
      <trkpt lat="42.74035" lon="1.99717">
        <ele>2013.14</ele>
        <time>2018-01-31T10:16:21Z</time>
      </trkpt>
      <trkpt lat="42.74043" lon="1.99718">
        <ele>2015.54</ele>
        <time>2018-01-31T10:16:34Z</time>
      </trkpt>
      <trkpt lat="42.7405" lon="1.99719">
        <ele>2017.46</ele>
        <time>2018-01-31T10:16:46Z</time>
      </trkpt>
      <trkpt lat="42.74058" lon="1.99722">
        <ele>2018.43</ele>
        <time>2018-01-31T10:16:59Z</time>
      </trkpt>
      <trkpt lat="42.74064" lon="1.99724">
        <ele>2020.83</ele>
        <time>2018-01-31T10:17:10Z</time>
      </trkpt>
      <trkpt lat="42.7407" lon="1.99732">
        <ele>2021.31</ele>
        <time>2018-01-31T10:17:24Z</time>
      </trkpt>
      <trkpt lat="42.74073" lon="1.99732">
        <ele>2021.79</ele>
        <time>2018-01-31T10:17:39Z</time>
      </trkpt>
      <trkpt lat="42.74074" lon="1.99732">
        <ele>2021.79</ele>
        <time>2018-01-31T10:18:05Z</time>
      </trkpt>
      <trkpt lat="42.74076" lon="1.99727">
        <ele>2022.75</ele>
        <time>2018-01-31T10:18:24Z</time>
      </trkpt>
      <trkpt lat="42.74076" lon="1.99728">
        <ele>2022.27</ele>
        <time>2018-01-31T10:18:42Z</time>
      </trkpt>
      <trkpt lat="42.74076" lon="1.99728">
        <ele>2022.27</ele>
        <time>2018-01-31T10:19:01Z</time>
      </trkpt>
      <trkpt lat="42.74076" lon="1.99727">
        <ele>2022.27</ele>
        <time>2018-01-31T10:19:15Z</time>
      </trkpt>
      <trkpt lat="42.74076" lon="1.99728">
        <ele>2020.35</ele>
        <time>2018-01-31T10:19:29Z</time>
      </trkpt>
      <trkpt lat="42.74075" lon="1.99727">
        <ele>2021.31</ele>
        <time>2018-01-31T10:19:41Z</time>
      </trkpt>
      <trkpt lat="42.74075" lon="1.99728">
        <ele>2018.43</ele>
        <time>2018-01-31T10:19:53Z</time>
      </trkpt>
      <trkpt lat="42.74075" lon="1.99727">
        <ele>2018.91</ele>
        <time>2018-01-31T10:20:18Z</time>
      </trkpt>
      <trkpt lat="42.74074" lon="1.99728">
        <ele>2019.39</ele>
        <time>2018-01-31T10:20:52Z</time>
      </trkpt>
      <trkpt lat="42.74075" lon="1.99727">
        <ele>2019.39</ele>
        <time>2018-01-31T10:21:31Z</time>
      </trkpt>
      <trkpt lat="42.74074" lon="1.99727">
        <ele>2019.87</ele>
        <time>2018-01-31T10:22:07Z</time>
      </trkpt>
      <trkpt lat="42.74074" lon="1.99727">
        <ele>2020.83</ele>
        <time>2018-01-31T10:23:04Z</time>
      </trkpt>
      <trkpt lat="42.74075" lon="1.99727">
        <ele>2020.35</ele>
        <time>2018-01-31T10:23:39Z</time>
      </trkpt>
      <trkpt lat="42.74075" lon="1.99727">
        <ele>2020.35</ele>
        <time>2018-01-31T10:24:21Z</time>
      </trkpt>
      <trkpt lat="42.74074" lon="1.99727">
        <ele>2021.31</ele>
        <time>2018-01-31T10:24:50Z</time>
      </trkpt>
      <trkpt lat="42.74075" lon="1.99728">
        <ele>2021.31</ele>
        <time>2018-01-31T10:25:07Z</time>
      </trkpt>
      <trkpt lat="42.74075" lon="1.99729">
        <ele>2021.79</ele>
        <time>2018-01-31T10:25:45Z</time>
      </trkpt>
      <trkpt lat="42.74075" lon="1.99729">
        <ele>2021.79</ele>
        <time>2018-01-31T10:26:22Z</time>
      </trkpt>
      <trkpt lat="42.74075" lon="1.99728">
        <ele>2021.79</ele>
        <time>2018-01-31T10:26:45Z</time>
      </trkpt>
      <trkpt lat="42.74075" lon="1.99728">
        <ele>2022.27</ele>
        <time>2018-01-31T10:27:14Z</time>
      </trkpt>
      <trkpt lat="42.74075" lon="1.99728">
        <ele>2023.23</ele>
        <time>2018-01-31T10:27:56Z</time>
      </trkpt>
      <trkpt lat="42.74075" lon="1.99727">
        <ele>2024.19</ele>
        <time>2018-01-31T10:28:42Z</time>
      </trkpt>
      <trkpt lat="42.74075" lon="1.99727">
        <ele>2023.71</ele>
        <time>2018-01-31T10:29:21Z</time>
      </trkpt>
      <trkpt lat="42.74075" lon="1.99728">
        <ele>2024.19</ele>
        <time>2018-01-31T10:29:49Z</time>
      </trkpt>
      <trkpt lat="42.74075" lon="1.99727">
        <ele>2022.75</ele>
        <time>2018-01-31T10:30:09Z</time>
      </trkpt>
      <trkpt lat="42.74075" lon="1.99727">
        <ele>2022.75</ele>
        <time>2018-01-31T10:30:48Z</time>
      </trkpt>
      <trkpt lat="42.74074" lon="1.99727">
        <ele>2021.79</ele>
        <time>2018-01-31T10:31:19Z</time>
      </trkpt>
      <trkpt lat="42.74075" lon="1.99728">
        <ele>2020.83</ele>
        <time>2018-01-31T10:31:47Z</time>
      </trkpt>
      <trkpt lat="42.74075" lon="1.99728">
        <ele>2019.87</ele>
        <time>2018-01-31T10:32:10Z</time>
      </trkpt>
      <trkpt lat="42.74075" lon="1.99728">
        <ele>2018.91</ele>
        <time>2018-01-31T10:32:38Z</time>
      </trkpt>
      <trkpt lat="42.74075" lon="1.99728">
        <ele>2019.39</ele>
        <time>2018-01-31T10:33:07Z</time>
      </trkpt>
      <trkpt lat="42.74076" lon="1.99728">
        <ele>2018.91</ele>
        <time>2018-01-31T10:33:37Z</time>
      </trkpt>
      <trkpt lat="42.74075" lon="1.99728">
        <ele>2019.87</ele>
        <time>2018-01-31T10:34:14Z</time>
      </trkpt>
      <trkpt lat="42.74075" lon="1.99728">
        <ele>2020.35</ele>
        <time>2018-01-31T10:34:52Z</time>
      </trkpt>
      <trkpt lat="42.74074" lon="1.99728">
        <ele>2020.83</ele>
        <time>2018-01-31T10:35:17Z</time>
      </trkpt>
      <trkpt lat="42.74074" lon="1.99728">
        <ele>2021.31</ele>
        <time>2018-01-31T10:35:47Z</time>
      </trkpt>
      <trkpt lat="42.74074" lon="1.99728">
        <ele>2021.79</ele>
        <time>2018-01-31T10:36:25Z</time>
      </trkpt>
      <trkpt lat="42.74074" lon="1.99728">
        <ele>2021.79</ele>
        <time>2018-01-31T10:36:58Z</time>
      </trkpt>
      <trkpt lat="42.74074" lon="1.99729">
        <ele>2021.79</ele>
        <time>2018-01-31T10:37:31Z</time>
      </trkpt>
      <trkpt lat="42.74073" lon="1.99729">
        <ele>2021.31</ele>
        <time>2018-01-31T10:37:55Z</time>
      </trkpt>
      <trkpt lat="42.74074" lon="1.99729">
        <ele>2020.83</ele>
        <time>2018-01-31T10:38:30Z</time>
      </trkpt>
      <trkpt lat="42.74075" lon="1.99729">
        <ele>2020.35</ele>
        <time>2018-01-31T10:38:59Z</time>
      </trkpt>
      <trkpt lat="42.74075" lon="1.99729">
        <ele>2020.35</ele>
        <time>2018-01-31T10:39:34Z</time>
      </trkpt>
      <trkpt lat="42.74075" lon="1.99728">
        <ele>2020.35</ele>
        <time>2018-01-31T10:40:00Z</time>
      </trkpt>
      <trkpt lat="42.74074" lon="1.99729">
        <ele>2020.35</ele>
        <time>2018-01-31T10:40:41Z</time>
      </trkpt>
      <trkpt lat="42.74073" lon="1.99728">
        <ele>2021.79</ele>
        <time>2018-01-31T10:41:21Z</time>
      </trkpt>
      <trkpt lat="42.74074" lon="1.99728">
        <ele>2022.75</ele>
        <time>2018-01-31T10:41:43Z</time>
      </trkpt>
      <trkpt lat="42.74075" lon="1.99728">
        <ele>2024.19</ele>
        <time>2018-01-31T10:41:58Z</time>
      </trkpt>
      <trkpt lat="42.74074" lon="1.99726">
        <ele>2024.67</ele>
        <time>2018-01-31T10:42:24Z</time>
      </trkpt>
      <trkpt lat="42.74075" lon="1.99728">
        <ele>2026.12</ele>
        <time>2018-01-31T10:42:34Z</time>
      </trkpt>
      <trkpt lat="42.74066" lon="1.9973">
        <ele>2024.19</ele>
        <time>2018-01-31T10:42:39Z</time>
      </trkpt>
      <trkpt lat="42.74059" lon="1.99724">
        <ele>2022.27</ele>
        <time>2018-01-31T10:42:41Z</time>
      </trkpt>
      <trkpt lat="42.74057" lon="1.99724">
        <ele>2019.87</ele>
        <time>2018-01-31T10:42:53Z</time>
      </trkpt>
      <trkpt lat="42.74058" lon="1.99726">
        <ele>2018.43</ele>
        <time>2018-01-31T10:43:07Z</time>
      </trkpt>
      <trkpt lat="42.74058" lon="1.99743">
        <ele>2014.1</ele>
        <time>2018-01-31T10:43:12Z</time>
      </trkpt>
      <trkpt lat="42.7404" lon="1.9977">
        <ele>2003.04</ele>
        <time>2018-01-31T10:43:18Z</time>
      </trkpt>
      <trkpt lat="42.74041" lon="1.99805">
        <ele>1991.03</ele>
        <time>2018-01-31T10:43:22Z</time>
      </trkpt>
      <trkpt lat="42.74051" lon="1.99838">
        <ele>1979.01</ele>
        <time>2018-01-31T10:43:26Z</time>
      </trkpt>
      <trkpt lat="42.74057" lon="1.99846">
        <ele>1975.17</ele>
        <time>2018-01-31T10:43:32Z</time>
      </trkpt>
      <trkpt lat="42.74068" lon="1.99858">
        <ele>1973.72</ele>
        <time>2018-01-31T10:43:44Z</time>
      </trkpt>
      <trkpt lat="42.74095" lon="1.99878">
        <ele>1972.76</ele>
        <time>2018-01-31T10:43:58Z</time>
      </trkpt>
      <trkpt lat="42.74121" lon="1.99895">
        <ele>1970.36</ele>
        <time>2018-01-31T10:44:12Z</time>
      </trkpt>
      <trkpt lat="42.74129" lon="1.99897">
        <ele>1969.4</ele>
        <time>2018-01-31T10:44:15Z</time>
      </trkpt>
      <trkpt lat="42.7414" lon="1.99919">
        <ele>1963.63</ele>
        <time>2018-01-31T10:44:20Z</time>
      </trkpt>
      <trkpt lat="42.74149" lon="1.99919">
        <ele>1960.27</ele>
        <time>2018-01-31T10:44:23Z</time>
      </trkpt>
      <trkpt lat="42.74159" lon="1.99913">
        <ele>1957.86</ele>
        <time>2018-01-31T10:44:26Z</time>
      </trkpt>
      <trkpt lat="42.74166" lon="1.99901">
        <ele>1955.94</ele>
        <time>2018-01-31T10:44:34Z</time>
      </trkpt>
      <trkpt lat="42.74166" lon="1.99901">
        <ele>1955.94</ele>
        <time>2018-01-31T10:44:38Z</time>
      </trkpt>
      <trkpt lat="42.74176" lon="1.99913">
        <ele>1952.57</ele>
        <time>2018-01-31T10:44:45Z</time>
      </trkpt>
      <trkpt lat="42.74185" lon="1.99913">
        <ele>1947.77</ele>
        <time>2018-01-31T10:44:50Z</time>
      </trkpt>
      <trkpt lat="42.74195" lon="1.99921">
        <ele>1943.92</ele>
        <time>2018-01-31T10:44:56Z</time>
      </trkpt>
      <trkpt lat="42.74206" lon="1.99936">
        <ele>1937.67</ele>
        <time>2018-01-31T10:45:01Z</time>
      </trkpt>
      <trkpt lat="42.74212" lon="1.99951">
        <ele>1931.91</ele>
        <time>2018-01-31T10:45:06Z</time>
      </trkpt>
      <trkpt lat="42.74202" lon="1.99981">
        <ele>1922.77</ele>
        <time>2018-01-31T10:45:12Z</time>
      </trkpt>
      <trkpt lat="42.74213" lon="1.99978">
        <ele>1918.45</ele>
        <time>2018-01-31T10:45:17Z</time>
      </trkpt>
      <trkpt lat="42.74214" lon="1.99977">
        <ele>1917.01</ele>
        <time>2018-01-31T10:45:29Z</time>
      </trkpt>
      <trkpt lat="42.74232" lon="1.99959">
        <ele>1913.16</ele>
        <time>2018-01-31T10:45:43Z</time>
      </trkpt>
      <trkpt lat="42.74245" lon="1.99948">
        <ele>1911.24</ele>
        <time>2018-01-31T10:45:57Z</time>
      </trkpt>
      <trkpt lat="42.74247" lon="1.99946">
        <ele>1910.76</ele>
        <time>2018-01-31T10:45:58Z</time>
      </trkpt>
      <trkpt lat="42.7428" lon="1.99954">
        <ele>1901.14</ele>
        <time>2018-01-31T10:46:04Z</time>
      </trkpt>
      <trkpt lat="42.74313" lon="1.99968">
        <ele>1889.61</ele>
        <time>2018-01-31T10:46:09Z</time>
      </trkpt>
      <trkpt lat="42.74323" lon="1.99966">
        <ele>1885.28</ele>
        <time>2018-01-31T10:46:11Z</time>
      </trkpt>
      <trkpt lat="42.74325" lon="1.99963">
        <ele>1883.84</ele>
        <time>2018-01-31T10:46:12Z</time>
      </trkpt>
      <trkpt lat="42.74324" lon="1.99962">
        <ele>1882.88</ele>
        <time>2018-01-31T10:46:22Z</time>
      </trkpt>
      <trkpt lat="42.74325" lon="1.99963">
        <ele>1882.4</ele>
        <time>2018-01-31T10:46:28Z</time>
      </trkpt>
      <trkpt lat="42.7433" lon="1.99965">
        <ele>1880.48</ele>
        <time>2018-01-31T10:46:30Z</time>
      </trkpt>
      <trkpt lat="42.74339" lon="1.99968">
        <ele>1874.71</ele>
        <time>2018-01-31T10:46:36Z</time>
      </trkpt>
      <trkpt lat="42.74339" lon="1.99969">
        <ele>1874.71</ele>
        <time>2018-01-31T10:46:48Z</time>
      </trkpt>
      <trkpt lat="42.74338" lon="1.9997">
        <ele>1874.23</ele>
        <time>2018-01-31T10:47:13Z</time>
      </trkpt>
      <trkpt lat="42.74338" lon="1.99969">
        <ele>1874.71</ele>
        <time>2018-01-31T10:47:34Z</time>
      </trkpt>
      <trkpt lat="42.74338" lon="1.9997">
        <ele>1875.19</ele>
        <time>2018-01-31T10:47:57Z</time>
      </trkpt>
      <trkpt lat="42.74338" lon="1.9997">
        <ele>1875.19</ele>
        <time>2018-01-31T10:48:25Z</time>
      </trkpt>
      <trkpt lat="42.74339" lon="1.99969">
        <ele>1874.71</ele>
        <time>2018-01-31T10:48:31Z</time>
      </trkpt>
      <trkpt lat="42.74359" lon="1.99979">
        <ele>1866.06</ele>
        <time>2018-01-31T10:48:38Z</time>
      </trkpt>
      <trkpt lat="42.74373" lon="1.99995">
        <ele>1857.89</ele>
        <time>2018-01-31T10:48:42Z</time>
      </trkpt>
      <trkpt lat="42.74398" lon="2.00024">
        <ele>1841.54</ele>
        <time>2018-01-31T10:48:48Z</time>
      </trkpt>
      <trkpt lat="42.74418" lon="2.00046">
        <ele>1826.16</ele>
        <time>2018-01-31T10:48:53Z</time>
      </trkpt>
      <trkpt lat="42.7443" lon="2.00058">
        <ele>1817.03</ele>
        <time>2018-01-31T10:48:57Z</time>
      </trkpt>
      <trkpt lat="42.74441" lon="2.00078">
        <ele>1805.01</ele>
        <time>2018-01-31T10:49:02Z</time>
      </trkpt>
      <trkpt lat="42.74446" lon="2.00098">
        <ele>1796.84</ele>
        <time>2018-01-31T10:49:06Z</time>
      </trkpt>
      <trkpt lat="42.74449" lon="2.00106">
        <ele>1788.67</ele>
        <time>2018-01-31T10:49:13Z</time>
      </trkpt>
      <trkpt lat="42.74449" lon="2.00105">
        <ele>1790.59</ele>
        <time>2018-01-31T10:49:30Z</time>
      </trkpt>
      <trkpt lat="42.74451" lon="2.00104">
        <ele>1793.48</ele>
        <time>2018-01-31T10:49:48Z</time>
      </trkpt>
      <trkpt lat="42.74452" lon="2.00104">
        <ele>1793.96</ele>
        <time>2018-01-31T10:49:51Z</time>
      </trkpt>
      <trkpt lat="42.74466" lon="2.00091">
        <ele>1790.11</ele>
        <time>2018-01-31T10:49:55Z</time>
      </trkpt>
      <trkpt lat="42.74481" lon="2.00068">
        <ele>1785.79</ele>
        <time>2018-01-31T10:49:58Z</time>
      </trkpt>
      <trkpt lat="42.74492" lon="2.00083">
        <ele>1778.58</ele>
        <time>2018-01-31T10:50:03Z</time>
      </trkpt>
      <trkpt lat="42.74491" lon="2.00086">
        <ele>1777.61</ele>
        <time>2018-01-31T10:50:09Z</time>
      </trkpt>
      <trkpt lat="42.74502" lon="2.00117">
        <ele>1772.33</ele>
        <time>2018-01-31T10:50:17Z</time>
      </trkpt>
      <trkpt lat="42.74517" lon="2.00153">
        <ele>1762.71</ele>
        <time>2018-01-31T10:50:22Z</time>
      </trkpt>
      <trkpt lat="42.74533" lon="2.00194">
        <ele>1750.7</ele>
        <time>2018-01-31T10:50:27Z</time>
      </trkpt>
      <trkpt lat="42.74539" lon="2.00211">
        <ele>1744.93</ele>
        <time>2018-01-31T10:50:29Z</time>
      </trkpt>
      <trkpt lat="42.74544" lon="2.0022">
        <ele>1742.05</ele>
        <time>2018-01-31T10:50:30Z</time>
      </trkpt>
      <trkpt lat="42.74547" lon="2.00226">
        <ele>1740.12</ele>
        <time>2018-01-31T10:50:31Z</time>
      </trkpt>
      <trkpt lat="42.74552" lon="2.00234">
        <ele>1738.2</ele>
        <time>2018-01-31T10:50:32Z</time>
      </trkpt>
      <trkpt lat="42.74556" lon="2.00241">
        <ele>1735.8</ele>
        <time>2018-01-31T10:50:33Z</time>
      </trkpt>
      <trkpt lat="42.74571" lon="2.0026">
        <ele>1729.07</ele>
        <time>2018-01-31T10:50:36Z</time>
      </trkpt>
      <trkpt lat="42.7461" lon="2.003">
        <ele>1715.13</ele>
        <time>2018-01-31T10:50:43Z</time>
      </trkpt>
      <trkpt lat="42.74625" lon="2.00321">
        <ele>1709.36</ele>
        <time>2018-01-31T10:50:46Z</time>
      </trkpt>
      <trkpt lat="42.74638" lon="2.00327">
        <ele>1704.55</ele>
        <time>2018-01-31T10:50:53Z</time>
      </trkpt>
      <trkpt lat="42.74636" lon="2.00324">
        <ele>1708.4</ele>
        <time>2018-01-31T10:51:06Z</time>
      </trkpt>
      <trkpt lat="42.74641" lon="2.00326">
        <ele>1706.48</ele>
        <time>2018-01-31T10:51:17Z</time>
      </trkpt>
      <trkpt lat="42.74644" lon="2.00327">
        <ele>1706.96</ele>
        <time>2018-01-31T10:51:35Z</time>
      </trkpt>
      <trkpt lat="42.74644" lon="2.00326">
        <ele>1707.44</ele>
        <time>2018-01-31T10:51:53Z</time>
      </trkpt>
      <trkpt lat="42.74644" lon="2.00327">
        <ele>1707.44</ele>
        <time>2018-01-31T10:52:16Z</time>
      </trkpt>
      <trkpt lat="42.74645" lon="2.00326">
        <ele>1706.96</ele>
        <time>2018-01-31T10:52:42Z</time>
      </trkpt>
      <trkpt lat="42.74645" lon="2.00326">
        <ele>1706.96</ele>
        <time>2018-01-31T10:52:56Z</time>
      </trkpt>
      <trkpt lat="42.7467" lon="2.00321">
        <ele>1702.63</ele>
        <time>2018-01-31T10:53:04Z</time>
      </trkpt>
      <trkpt lat="42.74701" lon="2.00349">
        <ele>1690.14</ele>
        <time>2018-01-31T10:53:12Z</time>
      </trkpt>
      <trkpt lat="42.74717" lon="2.00359">
        <ele>1684.85</ele>
        <time>2018-01-31T10:53:16Z</time>
      </trkpt>
      <trkpt lat="42.7474" lon="2.00374">
        <ele>1676.2</ele>
        <time>2018-01-31T10:53:22Z</time>
      </trkpt>
      <trkpt lat="42.74759" lon="2.00367">
        <ele>1668.02</ele>
        <time>2018-01-31T10:53:28Z</time>
      </trkpt>
      <trkpt lat="42.7478" lon="2.00366">
        <ele>1661.3</ele>
        <time>2018-01-31T10:53:33Z</time>
      </trkpt>
      <trkpt lat="42.74814" lon="2.00364">
        <ele>1653.12</ele>
        <time>2018-01-31T10:53:39Z</time>
      </trkpt>
      <trkpt lat="42.74849" lon="2.00363">
        <ele>1646.88</ele>
        <time>2018-01-31T10:53:45Z</time>
      </trkpt>
      <trkpt lat="42.74856" lon="2.00364">
        <ele>1645.91</ele>
        <time>2018-01-31T10:53:46Z</time>
      </trkpt>
      <trkpt lat="42.7489" lon="2.00378">
        <ele>1641.11</ele>
        <time>2018-01-31T10:53:54Z</time>
      </trkpt>
      <trkpt lat="42.7489" lon="2.00377">
        <ele>1642.55</ele>
        <time>2018-01-31T10:54:09Z</time>
      </trkpt>
      <trkpt lat="42.74891" lon="2.00378">
        <ele>1642.55</ele>
        <time>2018-01-31T10:54:11Z</time>
      </trkpt>
      <trkpt lat="42.74903" lon="2.0037">
        <ele>1638.7</ele>
        <time>2018-01-31T10:54:18Z</time>
      </trkpt>
      <trkpt lat="42.74904" lon="2.0037">
        <ele>1633.9</ele>
        <time>2018-01-31T10:54:29Z</time>
      </trkpt>
      <trkpt lat="42.74903" lon="2.00371">
        <ele>1631.98</ele>
        <time>2018-01-31T10:54:48Z</time>
      </trkpt>
      <trkpt lat="42.74902" lon="2.00371">
        <ele>1635.34</ele>
        <time>2018-01-31T10:55:06Z</time>
      </trkpt>
      <trkpt lat="42.74904" lon="2.0037">
        <ele>1635.82</ele>
        <time>2018-01-31T10:55:29Z</time>
      </trkpt>
      <trkpt lat="42.74904" lon="2.00369">
        <ele>1638.22</ele>
        <time>2018-01-31T10:55:44Z</time>
      </trkpt>
      <trkpt lat="42.74904" lon="2.00368">
        <ele>1640.15</ele>
        <time>2018-01-31T10:56:06Z</time>
      </trkpt>
      <trkpt lat="42.74904" lon="2.00369">
        <ele>1639.19</ele>
        <time>2018-01-31T10:56:25Z</time>
      </trkpt>
      <trkpt lat="42.74903" lon="2.00369">
        <ele>1635.34</ele>
        <time>2018-01-31T10:56:56Z</time>
      </trkpt>
      <trkpt lat="42.74904" lon="2.00368">
        <ele>1633.42</ele>
        <time>2018-01-31T10:57:23Z</time>
      </trkpt>
      <trkpt lat="42.74905" lon="2.00368">
        <ele>1631.98</ele>
        <time>2018-01-31T10:57:49Z</time>
      </trkpt>
      <trkpt lat="42.74905" lon="2.00367">
        <ele>1633.42</ele>
        <time>2018-01-31T10:58:06Z</time>
      </trkpt>
      <trkpt lat="42.74904" lon="2.00369">
        <ele>1635.34</ele>
        <time>2018-01-31T10:58:29Z</time>
      </trkpt>
      <trkpt lat="42.74905" lon="2.00369">
        <ele>1637.74</ele>
        <time>2018-01-31T10:58:59Z</time>
      </trkpt>
      <trkpt lat="42.74904" lon="2.0037">
        <ele>1638.22</ele>
        <time>2018-01-31T10:59:26Z</time>
      </trkpt>
      <trkpt lat="42.74904" lon="2.0037">
        <ele>1638.7</ele>
        <time>2018-01-31T11:00:00Z</time>
      </trkpt>
      <trkpt lat="42.74906" lon="2.00368">
        <ele>1636.78</ele>
        <time>2018-01-31T11:00:16Z</time>
      </trkpt>
      <trkpt lat="42.74904" lon="2.00371">
        <ele>1637.74</ele>
        <time>2018-01-31T11:00:32Z</time>
      </trkpt>
      <trkpt lat="42.74904" lon="2.0037">
        <ele>1638.22</ele>
        <time>2018-01-31T11:00:52Z</time>
      </trkpt>
      <trkpt lat="42.749" lon="2.00371">
        <ele>1639.19</ele>
        <time>2018-01-31T11:01:09Z</time>
      </trkpt>
      <trkpt lat="42.74902" lon="2.00374">
        <ele>1640.15</ele>
        <time>2018-01-31T11:01:22Z</time>
      </trkpt>
      <trkpt lat="42.74902" lon="2.00374">
        <ele>1641.59</ele>
        <time>2018-01-31T11:01:34Z</time>
      </trkpt>
      <trkpt lat="42.749" lon="2.00375">
        <ele>1641.59</ele>
        <time>2018-01-31T11:01:44Z</time>
      </trkpt>
      <trkpt lat="42.74902" lon="2.00372">
        <ele>1642.07</ele>
        <time>2018-01-31T11:02:08Z</time>
      </trkpt>
      <trkpt lat="42.74902" lon="2.00372">
        <ele>1642.07</ele>
        <time>2018-01-31T11:02:24Z</time>
      </trkpt>
      <trkpt lat="42.74903" lon="2.00378">
        <ele>1641.59</ele>
        <time>2018-01-31T11:02:41Z</time>
      </trkpt>
      <trkpt lat="42.74891" lon="2.00377">
        <ele>1642.55</ele>
        <time>2018-01-31T11:02:57Z</time>
      </trkpt>
      <trkpt lat="42.74883" lon="2.00373">
        <ele>1642.55</ele>
        <time>2018-01-31T11:03:08Z</time>
      </trkpt>
      <trkpt lat="42.74871" lon="2.00373">
        <ele>1643.51</ele>
        <time>2018-01-31T11:03:21Z</time>
      </trkpt>
      <trkpt lat="42.74863" lon="2.0037">
        <ele>1645.91</ele>
        <time>2018-01-31T11:03:35Z</time>
      </trkpt>
      <trkpt lat="42.74856" lon="2.00365">
        <ele>1647.36</ele>
        <time>2018-01-31T11:03:47Z</time>
      </trkpt>
      <trkpt lat="42.7485" lon="2.00363">
        <ele>1648.8</ele>
        <time>2018-01-31T11:03:59Z</time>
      </trkpt>
      <trkpt lat="42.7484" lon="2.00365">
        <ele>1649.76</ele>
        <time>2018-01-31T11:04:13Z</time>
      </trkpt>
      <trkpt lat="42.74834" lon="2.00364">
        <ele>1651.2</ele>
        <time>2018-01-31T11:04:28Z</time>
      </trkpt>
      <trkpt lat="42.74834" lon="2.00365">
        <ele>1650.24</ele>
        <time>2018-01-31T11:04:45Z</time>
      </trkpt>
      <trkpt lat="42.74838" lon="2.00364">
        <ele>1648.8</ele>
        <time>2018-01-31T11:05:14Z</time>
      </trkpt>
      <trkpt lat="42.7484" lon="2.00364">
        <ele>1647.84</ele>
        <time>2018-01-31T11:05:35Z</time>
      </trkpt>
      <trkpt lat="42.74834" lon="2.00364">
        <ele>1647.84</ele>
        <time>2018-01-31T11:05:54Z</time>
      </trkpt>
      <trkpt lat="42.74824" lon="2.00364">
        <ele>1650.24</ele>
        <time>2018-01-31T11:06:08Z</time>
      </trkpt>
      <trkpt lat="42.74817" lon="2.00362">
        <ele>1652.64</ele>
        <time>2018-01-31T11:06:18Z</time>
      </trkpt>
      <trkpt lat="42.74808" lon="2.00363">
        <ele>1653.6</ele>
        <time>2018-01-31T11:06:32Z</time>
      </trkpt>
      <trkpt lat="42.74804" lon="2.00366">
        <ele>1655.53</ele>
        <time>2018-01-31T11:06:45Z</time>
      </trkpt>
      <trkpt lat="42.74801" lon="2.0037">
        <ele>1656.97</ele>
        <time>2018-01-31T11:07:02Z</time>
      </trkpt>
      <trkpt lat="42.74794" lon="2.00377">
        <ele>1659.37</ele>
        <time>2018-01-31T11:07:16Z</time>
      </trkpt>
      <trkpt lat="42.74787" lon="2.00379">
        <ele>1662.26</ele>
        <time>2018-01-31T11:07:30Z</time>
      </trkpt>
      <trkpt lat="42.74782" lon="2.00383">
        <ele>1664.66</ele>
        <time>2018-01-31T11:07:43Z</time>
      </trkpt>
      <trkpt lat="42.74774" lon="2.00389">
        <ele>1667.06</ele>
        <time>2018-01-31T11:07:58Z</time>
      </trkpt>
      <trkpt lat="42.74766" lon="2.00394">
        <ele>1668.51</ele>
        <time>2018-01-31T11:08:11Z</time>
      </trkpt>
      <trkpt lat="42.74758" lon="2.00397">
        <ele>1668.99</ele>
        <time>2018-01-31T11:08:24Z</time>
      </trkpt>
      <trkpt lat="42.74749" lon="2.00394">
        <ele>1670.91</ele>
        <time>2018-01-31T11:08:39Z</time>
      </trkpt>
      <trkpt lat="42.74748" lon="2.00392">
        <ele>1669.47</ele>
        <time>2018-01-31T11:08:54Z</time>
      </trkpt>
      <trkpt lat="42.74746" lon="2.00391">
        <ele>1668.51</ele>
        <time>2018-01-31T11:09:10Z</time>
      </trkpt>
      <trkpt lat="42.74744" lon="2.00391">
        <ele>1668.99</ele>
        <time>2018-01-31T11:09:34Z</time>
      </trkpt>
      <trkpt lat="42.74744" lon="2.00392">
        <ele>1669.47</ele>
        <time>2018-01-31T11:10:01Z</time>
      </trkpt>
      <trkpt lat="42.74744" lon="2.00392">
        <ele>1671.39</ele>
        <time>2018-01-31T11:10:25Z</time>
      </trkpt>
      <trkpt lat="42.74744" lon="2.00392">
        <ele>1670.91</ele>
        <time>2018-01-31T11:10:52Z</time>
      </trkpt>
      <trkpt lat="42.74746" lon="2.00391">
        <ele>1668.51</ele>
        <time>2018-01-31T11:11:08Z</time>
      </trkpt>
      <trkpt lat="42.74749" lon="2.00388">
        <ele>1667.06</ele>
        <time>2018-01-31T11:11:28Z</time>
      </trkpt>
      <trkpt lat="42.74748" lon="2.00388">
        <ele>1666.1</ele>
        <time>2018-01-31T11:11:52Z</time>
      </trkpt>
      <trkpt lat="42.74747" lon="2.0039">
        <ele>1665.62</ele>
        <time>2018-01-31T11:12:15Z</time>
      </trkpt>
      <trkpt lat="42.74747" lon="2.00388">
        <ele>1665.14</ele>
        <time>2018-01-31T11:12:41Z</time>
      </trkpt>
      <trkpt lat="42.74747" lon="2.0039">
        <ele>1666.1</ele>
        <time>2018-01-31T11:12:56Z</time>
      </trkpt>
      <trkpt lat="42.74749" lon="2.0039">
        <ele>1665.62</ele>
        <time>2018-01-31T11:13:17Z</time>
      </trkpt>
      <trkpt lat="42.74748" lon="2.0039">
        <ele>1667.54</ele>
        <time>2018-01-31T11:13:31Z</time>
      </trkpt>
      <trkpt lat="42.74748" lon="2.0039">
        <ele>1667.54</ele>
        <time>2018-01-31T11:13:51Z</time>
      </trkpt>
      <trkpt lat="42.74748" lon="2.0039">
        <ele>1668.51</ele>
        <time>2018-01-31T11:14:10Z</time>
      </trkpt>
      <trkpt lat="42.74742" lon="2.00389">
        <ele>1668.99</ele>
        <time>2018-01-31T11:14:30Z</time>
      </trkpt>
      <trkpt lat="42.74733" lon="2.00387">
        <ele>1669.95</ele>
        <time>2018-01-31T11:14:44Z</time>
      </trkpt>
      <trkpt lat="42.74727" lon="2.00389">
        <ele>1672.83</ele>
        <time>2018-01-31T11:14:57Z</time>
      </trkpt>
      <trkpt lat="42.74718" lon="2.00393">
        <ele>1675.23</ele>
        <time>2018-01-31T11:15:12Z</time>
      </trkpt>
      <trkpt lat="42.74714" lon="2.00396">
        <ele>1675.72</ele>
        <time>2018-01-31T11:15:30Z</time>
      </trkpt>
      <trkpt lat="42.74708" lon="2.00401">
        <ele>1675.72</ele>
        <time>2018-01-31T11:15:44Z</time>
      </trkpt>
      <trkpt lat="42.747" lon="2.00407">
        <ele>1676.68</ele>
        <time>2018-01-31T11:16:00Z</time>
      </trkpt>
      <trkpt lat="42.74694" lon="2.00411">
        <ele>1679.56</ele>
        <time>2018-01-31T11:16:14Z</time>
      </trkpt>
      <trkpt lat="42.74685" lon="2.00414">
        <ele>1682.93</ele>
        <time>2018-01-31T11:16:31Z</time>
      </trkpt>
      <trkpt lat="42.74675" lon="2.00417">
        <ele>1685.81</ele>
        <time>2018-01-31T11:16:46Z</time>
      </trkpt>
      <trkpt lat="42.74668" lon="2.0042">
        <ele>1686.77</ele>
        <time>2018-01-31T11:17:00Z</time>
      </trkpt>
      <trkpt lat="42.74661" lon="2.00426">
        <ele>1685.81</ele>
        <time>2018-01-31T11:17:12Z</time>
      </trkpt>
      <trkpt lat="42.74655" lon="2.00432">
        <ele>1686.77</ele>
        <time>2018-01-31T11:17:27Z</time>
      </trkpt>
      <trkpt lat="42.74652" lon="2.00441">
        <ele>1688.21</ele>
        <time>2018-01-31T11:17:41Z</time>
      </trkpt>
      <trkpt lat="42.74648" lon="2.0045">
        <ele>1690.14</ele>
        <time>2018-01-31T11:17:55Z</time>
      </trkpt>
      <trkpt lat="42.74641" lon="2.00455">
        <ele>1691.1</ele>
        <time>2018-01-31T11:18:08Z</time>
      </trkpt>
      <trkpt lat="42.74634" lon="2.00454">
        <ele>1693.02</ele>
        <time>2018-01-31T11:18:22Z</time>
      </trkpt>
      <trkpt lat="42.74627" lon="2.00456">
        <ele>1693.02</ele>
        <time>2018-01-31T11:18:36Z</time>
      </trkpt>
      <trkpt lat="42.74618" lon="2.00462">
        <ele>1694.94</ele>
        <time>2018-01-31T11:18:51Z</time>
      </trkpt>
      <trkpt lat="42.74614" lon="2.00463">
        <ele>1697.83</ele>
        <time>2018-01-31T11:19:05Z</time>
      </trkpt>
      <trkpt lat="42.74611" lon="2.00466">
        <ele>1697.83</ele>
        <time>2018-01-31T11:19:22Z</time>
      </trkpt>
      <trkpt lat="42.74609" lon="2.00466">
        <ele>1697.83</ele>
        <time>2018-01-31T11:19:41Z</time>
      </trkpt>
      <trkpt lat="42.74611" lon="2.00465">
        <ele>1696.86</ele>
        <time>2018-01-31T11:20:12Z</time>
      </trkpt>
      <trkpt lat="42.74609" lon="2.00465">
        <ele>1696.38</ele>
        <time>2018-01-31T11:20:34Z</time>
      </trkpt>
      <trkpt lat="42.74609" lon="2.00466">
        <ele>1696.86</ele>
        <time>2018-01-31T11:20:57Z</time>
      </trkpt>
      <trkpt lat="42.74611" lon="2.00465">
        <ele>1697.34</ele>
        <time>2018-01-31T11:21:27Z</time>
      </trkpt>
      <trkpt lat="42.7461" lon="2.00465">
        <ele>1696.38</ele>
        <time>2018-01-31T11:21:59Z</time>
      </trkpt>
      <trkpt lat="42.74611" lon="2.00466">
        <ele>1696.86</ele>
        <time>2018-01-31T11:22:16Z</time>
      </trkpt>
      <trkpt lat="42.7461" lon="2.00467">
        <ele>1696.86</ele>
        <time>2018-01-31T11:22:41Z</time>
      </trkpt>
      <trkpt lat="42.74603" lon="2.0047">
        <ele>1698.79</ele>
        <time>2018-01-31T11:22:53Z</time>
      </trkpt>
      <trkpt lat="42.74594" lon="2.00474">
        <ele>1700.71</ele>
        <time>2018-01-31T11:23:08Z</time>
      </trkpt>
      <trkpt lat="42.74586" lon="2.00476">
        <ele>1700.71</ele>
        <time>2018-01-31T11:23:21Z</time>
      </trkpt>
      <trkpt lat="42.74583" lon="2.00477">
        <ele>1701.19</ele>
        <time>2018-01-31T11:23:26Z</time>
      </trkpt>
      <trkpt lat="42.74575" lon="2.00481">
        <ele>1703.11</ele>
        <time>2018-01-31T11:23:42Z</time>
      </trkpt>
      <trkpt lat="42.7457" lon="2.00483">
        <ele>1703.11</ele>
        <time>2018-01-31T11:23:56Z</time>
      </trkpt>
      <trkpt lat="42.7457" lon="2.00482">
        <ele>1702.63</ele>
        <time>2018-01-31T11:24:14Z</time>
      </trkpt>
      <trkpt lat="42.74567" lon="2.00483">
        <ele>1703.11</ele>
        <time>2018-01-31T11:24:33Z</time>
      </trkpt>
      <trkpt lat="42.7456" lon="2.00486">
        <ele>1705.04</ele>
        <time>2018-01-31T11:24:47Z</time>
      </trkpt>
      <trkpt lat="42.74551" lon="2.00489">
        <ele>1707.92</ele>
        <time>2018-01-31T11:25:02Z</time>
      </trkpt>
      <trkpt lat="42.74542" lon="2.00493">
        <ele>1710.8</ele>
        <time>2018-01-31T11:25:16Z</time>
      </trkpt>
      <trkpt lat="42.74533" lon="2.00496">
        <ele>1713.21</ele>
        <time>2018-01-31T11:25:31Z</time>
      </trkpt>
      <trkpt lat="42.74524" lon="2.00501">
        <ele>1713.69</ele>
        <time>2018-01-31T11:25:47Z</time>
      </trkpt>
      <trkpt lat="42.74515" lon="2.00509">
        <ele>1714.17</ele>
        <time>2018-01-31T11:26:02Z</time>
      </trkpt>
      <trkpt lat="42.74507" lon="2.00513">
        <ele>1716.09</ele>
        <time>2018-01-31T11:26:17Z</time>
      </trkpt>
      <trkpt lat="42.74498" lon="2.00521">
        <ele>1717.53</ele>
        <time>2018-01-31T11:26:33Z</time>
      </trkpt>
      <trkpt lat="42.7449" lon="2.00525">
        <ele>1718.49</ele>
        <time>2018-01-31T11:26:47Z</time>
      </trkpt>
      <trkpt lat="42.74488" lon="2.00526">
        <ele>1718.97</ele>
        <time>2018-01-31T11:26:49Z</time>
      </trkpt>
      <trkpt lat="42.74479" lon="2.00528">
        <ele>1721.86</ele>
        <time>2018-01-31T11:27:06Z</time>
      </trkpt>
      <trkpt lat="42.7447" lon="2.00529">
        <ele>1723.78</ele>
        <time>2018-01-31T11:27:21Z</time>
      </trkpt>
      <trkpt lat="42.74463" lon="2.00532">
        <ele>1726.18</ele>
        <time>2018-01-31T11:27:34Z</time>
      </trkpt>
      <trkpt lat="42.74454" lon="2.00534">
        <ele>1727.63</ele>
        <time>2018-01-31T11:27:49Z</time>
      </trkpt>
      <trkpt lat="42.74446" lon="2.00538">
        <ele>1730.03</ele>
        <time>2018-01-31T11:28:04Z</time>
      </trkpt>
      <trkpt lat="42.74439" lon="2.00542">
        <ele>1732.91</ele>
        <time>2018-01-31T11:28:18Z</time>
      </trkpt>
      <trkpt lat="42.7443" lon="2.00544">
        <ele>1735.32</ele>
        <time>2018-01-31T11:28:34Z</time>
      </trkpt>
      <trkpt lat="42.74422" lon="2.00546">
        <ele>1736.28</ele>
        <time>2018-01-31T11:28:48Z</time>
      </trkpt>
      <trkpt lat="42.74412" lon="2.00548">
        <ele>1737.72</ele>
        <time>2018-01-31T11:29:03Z</time>
      </trkpt>
      <trkpt lat="42.74408" lon="2.00548">
        <ele>1738.2</ele>
        <time>2018-01-31T11:29:09Z</time>
      </trkpt>
      <trkpt lat="42.74399" lon="2.0055">
        <ele>1740.12</ele>
        <time>2018-01-31T11:29:24Z</time>
      </trkpt>
      <trkpt lat="42.74399" lon="2.0055">
        <ele>1739.16</ele>
        <time>2018-01-31T11:29:41Z</time>
      </trkpt>
      <trkpt lat="42.74397" lon="2.00549">
        <ele>1739.16</ele>
        <time>2018-01-31T11:29:57Z</time>
      </trkpt>
      <trkpt lat="42.74397" lon="2.00548">
        <ele>1740.6</ele>
        <time>2018-01-31T11:30:36Z</time>
      </trkpt>
      <trkpt lat="42.74399" lon="2.00549">
        <ele>1741.08</ele>
        <time>2018-01-31T11:30:52Z</time>
      </trkpt>
      <trkpt lat="42.74391" lon="2.00554">
        <ele>1742.53</ele>
        <time>2018-01-31T11:31:06Z</time>
      </trkpt>
      <trkpt lat="42.74381" lon="2.00558">
        <ele>1744.93</ele>
        <time>2018-01-31T11:31:20Z</time>
      </trkpt>
      <trkpt lat="42.74372" lon="2.00562">
        <ele>1747.81</ele>
        <time>2018-01-31T11:31:36Z</time>
      </trkpt>
      <trkpt lat="42.74361" lon="2.00566">
        <ele>1748.78</ele>
        <time>2018-01-31T11:31:53Z</time>
      </trkpt>
      <trkpt lat="42.74352" lon="2.0057">
        <ele>1750.22</ele>
        <time>2018-01-31T11:32:08Z</time>
      </trkpt>
      <trkpt lat="42.74342" lon="2.00576">
        <ele>1750.22</ele>
        <time>2018-01-31T11:32:26Z</time>
      </trkpt>
      <trkpt lat="42.74332" lon="2.0058">
        <ele>1751.18</ele>
        <time>2018-01-31T11:32:42Z</time>
      </trkpt>
      <trkpt lat="42.7432" lon="2.00582">
        <ele>1752.62</ele>
        <time>2018-01-31T11:33:00Z</time>
      </trkpt>
      <trkpt lat="42.74307" lon="2.00579">
        <ele>1753.58</ele>
        <time>2018-01-31T11:33:16Z</time>
      </trkpt>
      <trkpt lat="42.74296" lon="2.00577">
        <ele>1755.02</ele>
        <time>2018-01-31T11:33:31Z</time>
      </trkpt>
      <trkpt lat="42.74293" lon="2.00577">
        <ele>1754.06</ele>
        <time>2018-01-31T11:33:48Z</time>
      </trkpt>
      <trkpt lat="42.74292" lon="2.00576">
        <ele>1754.06</ele>
        <time>2018-01-31T11:34:12Z</time>
      </trkpt>
      <trkpt lat="42.74295" lon="2.00577">
        <ele>1753.58</ele>
        <time>2018-01-31T11:34:37Z</time>
      </trkpt>
      <trkpt lat="42.74293" lon="2.00576">
        <ele>1752.62</ele>
        <time>2018-01-31T11:34:58Z</time>
      </trkpt>
      <trkpt lat="42.74293" lon="2.00577">
        <ele>1752.62</ele>
        <time>2018-01-31T11:35:28Z</time>
      </trkpt>
      <trkpt lat="42.74291" lon="2.00579">
        <ele>1754.54</ele>
        <time>2018-01-31T11:35:46Z</time>
      </trkpt>
      <trkpt lat="42.74279" lon="2.00587">
        <ele>1757.43</ele>
        <time>2018-01-31T11:36:02Z</time>
      </trkpt>
      <trkpt lat="42.74267" lon="2.00585">
        <ele>1759.35</ele>
        <time>2018-01-31T11:36:17Z</time>
      </trkpt>
      <trkpt lat="42.74255" lon="2.00583">
        <ele>1761.27</ele>
        <time>2018-01-31T11:36:33Z</time>
      </trkpt>
      <trkpt lat="42.74245" lon="2.00586">
        <ele>1762.71</ele>
        <time>2018-01-31T11:36:48Z</time>
      </trkpt>
      <trkpt lat="42.74235" lon="2.00588">
        <ele>1763.68</ele>
        <time>2018-01-31T11:37:02Z</time>
      </trkpt>
      <trkpt lat="42.74224" lon="2.00589">
        <ele>1765.6</ele>
        <time>2018-01-31T11:37:17Z</time>
      </trkpt>
      <trkpt lat="42.74211" lon="2.00587">
        <ele>1767.04</ele>
        <time>2018-01-31T11:37:35Z</time>
      </trkpt>
      <trkpt lat="42.74205" lon="2.0058">
        <ele>1767.52</ele>
        <time>2018-01-31T11:37:49Z</time>
      </trkpt>
      <trkpt lat="42.74196" lon="2.00572">
        <ele>1768.96</ele>
        <time>2018-01-31T11:38:04Z</time>
      </trkpt>
      <trkpt lat="42.74193" lon="2.00571">
        <ele>1768.48</ele>
        <time>2018-01-31T11:38:21Z</time>
      </trkpt>
      <trkpt lat="42.74188" lon="2.00569">
        <ele>1768</ele>
        <time>2018-01-31T11:38:36Z</time>
      </trkpt>
      <trkpt lat="42.74176" lon="2.00567">
        <ele>1769.44</ele>
        <time>2018-01-31T11:38:52Z</time>
      </trkpt>
      <trkpt lat="42.74168" lon="2.00566">
        <ele>1770.89</ele>
        <time>2018-01-31T11:39:05Z</time>
      </trkpt>
      <trkpt lat="42.74157" lon="2.00565">
        <ele>1772.81</ele>
        <time>2018-01-31T11:39:20Z</time>
      </trkpt>
      <trkpt lat="42.74151" lon="2.00556">
        <ele>1774.25</ele>
        <time>2018-01-31T11:39:34Z</time>
      </trkpt>
      <trkpt lat="42.74145" lon="2.00549">
        <ele>1775.69</ele>
        <time>2018-01-31T11:39:47Z</time>
      </trkpt>
      <trkpt lat="42.74144" lon="2.00548">
        <ele>1775.69</ele>
        <time>2018-01-31T11:39:48Z</time>
      </trkpt>
      <trkpt lat="42.74136" lon="2.00546">
        <ele>1778.1</ele>
        <time>2018-01-31T11:40:03Z</time>
      </trkpt>
      <trkpt lat="42.74128" lon="2.00548">
        <ele>1779.06</ele>
        <time>2018-01-31T11:40:17Z</time>
      </trkpt>
      <trkpt lat="42.7412" lon="2.00551">
        <ele>1780.98</ele>
        <time>2018-01-31T11:40:32Z</time>
      </trkpt>
      <trkpt lat="42.74109" lon="2.00548">
        <ele>1783.38</ele>
        <time>2018-01-31T11:40:47Z</time>
      </trkpt>
      <trkpt lat="42.74099" lon="2.00551">
        <ele>1786.27</ele>
        <time>2018-01-31T11:41:03Z</time>
      </trkpt>
      <trkpt lat="42.74095" lon="2.00543">
        <ele>1787.71</ele>
        <time>2018-01-31T11:41:16Z</time>
      </trkpt>
      <trkpt lat="42.74087" lon="2.0054">
        <ele>1790.59</ele>
        <time>2018-01-31T11:41:31Z</time>
      </trkpt>
      <trkpt lat="42.7408" lon="2.00538">
        <ele>1792.52</ele>
        <time>2018-01-31T11:41:45Z</time>
      </trkpt>
      <trkpt lat="42.74073" lon="2.00538">
        <ele>1793.48</ele>
        <time>2018-01-31T11:41:57Z</time>
      </trkpt>
      <trkpt lat="42.74063" lon="2.00538">
        <ele>1795.88</ele>
        <time>2018-01-31T11:42:12Z</time>
      </trkpt>
      <trkpt lat="42.74056" lon="2.00533">
        <ele>1797.32</ele>
        <time>2018-01-31T11:42:25Z</time>
      </trkpt>
      <trkpt lat="42.74047" lon="2.0053">
        <ele>1799.24</ele>
        <time>2018-01-31T11:42:40Z</time>
      </trkpt>
      <trkpt lat="42.7404" lon="2.00527">
        <ele>1800.69</ele>
        <time>2018-01-31T11:42:54Z</time>
      </trkpt>
      <trkpt lat="42.74031" lon="2.00522">
        <ele>1802.61</ele>
        <time>2018-01-31T11:43:09Z</time>
      </trkpt>
      <trkpt lat="42.74024" lon="2.00519">
        <ele>1804.53</ele>
        <time>2018-01-31T11:43:24Z</time>
      </trkpt>
      <trkpt lat="42.74016" lon="2.00515">
        <ele>1805.97</ele>
        <time>2018-01-31T11:43:39Z</time>
      </trkpt>
      <trkpt lat="42.74011" lon="2.00505">
        <ele>1806.94</ele>
        <time>2018-01-31T11:43:54Z</time>
      </trkpt>
      <trkpt lat="42.74001" lon="2.00502">
        <ele>1809.34</ele>
        <time>2018-01-31T11:44:09Z</time>
      </trkpt>
      <trkpt lat="42.73994" lon="2.00495">
        <ele>1811.26</ele>
        <time>2018-01-31T11:44:24Z</time>
      </trkpt>
      <trkpt lat="42.73985" lon="2.00491">
        <ele>1812.22</ele>
        <time>2018-01-31T11:44:38Z</time>
      </trkpt>
      <trkpt lat="42.73982" lon="2.00486">
        <ele>1813.66</ele>
        <time>2018-01-31T11:44:53Z</time>
      </trkpt>
      <trkpt lat="42.73981" lon="2.00486">
        <ele>1810.3</ele>
        <time>2018-01-31T11:45:15Z</time>
      </trkpt>
      <trkpt lat="42.73977" lon="2.00481">
        <ele>1811.74</ele>
        <time>2018-01-31T11:45:31Z</time>
      </trkpt>
      <trkpt lat="42.73969" lon="2.00473">
        <ele>1814.15</ele>
        <time>2018-01-31T11:45:46Z</time>
      </trkpt>
      <trkpt lat="42.73957" lon="2.00464">
        <ele>1817.99</ele>
        <time>2018-01-31T11:46:04Z</time>
      </trkpt>
      <trkpt lat="42.73945" lon="2.00462">
        <ele>1819.43</ele>
        <time>2018-01-31T11:46:20Z</time>
      </trkpt>
      <trkpt lat="42.73934" lon="2.00461">
        <ele>1820.87</ele>
        <time>2018-01-31T11:46:35Z</time>
      </trkpt>
      <trkpt lat="42.73923" lon="2.0046">
        <ele>1822.8</ele>
        <time>2018-01-31T11:46:49Z</time>
      </trkpt>
      <trkpt lat="42.73913" lon="2.00461">
        <ele>1824.72</ele>
        <time>2018-01-31T11:47:03Z</time>
      </trkpt>
      <trkpt lat="42.73904" lon="2.00462">
        <ele>1827.12</ele>
        <time>2018-01-31T11:47:17Z</time>
      </trkpt>
      <trkpt lat="42.73894" lon="2.00463">
        <ele>1830.01</ele>
        <time>2018-01-31T11:47:31Z</time>
      </trkpt>
      <trkpt lat="42.73885" lon="2.00464">
        <ele>1832.41</ele>
        <time>2018-01-31T11:47:47Z</time>
      </trkpt>
      <trkpt lat="42.73878" lon="2.00465">
        <ele>1832.89</ele>
        <time>2018-01-31T11:47:57Z</time>
      </trkpt>
      <trkpt lat="42.73866" lon="2.00464">
        <ele>1835.77</ele>
        <time>2018-01-31T11:48:11Z</time>
      </trkpt>
      <trkpt lat="42.73856" lon="2.00464">
        <ele>1837.22</ele>
        <time>2018-01-31T11:48:26Z</time>
      </trkpt>
      <trkpt lat="42.73847" lon="2.00464">
        <ele>1838.18</ele>
        <time>2018-01-31T11:48:40Z</time>
      </trkpt>
      <trkpt lat="42.73836" lon="2.00464">
        <ele>1840.1</ele>
        <time>2018-01-31T11:48:56Z</time>
      </trkpt>
      <trkpt lat="42.73829" lon="2.00467">
        <ele>1841.54</ele>
        <time>2018-01-31T11:49:07Z</time>
      </trkpt>
      <trkpt lat="42.73818" lon="2.00466">
        <ele>1843.95</ele>
        <time>2018-01-31T11:49:23Z</time>
      </trkpt>
      <trkpt lat="42.73809" lon="2.00463">
        <ele>1845.39</ele>
        <time>2018-01-31T11:49:39Z</time>
      </trkpt>
      <trkpt lat="42.73806" lon="2.00463">
        <ele>1843.95</ele>
        <time>2018-01-31T11:49:54Z</time>
      </trkpt>
      <trkpt lat="42.73802" lon="2.00463">
        <ele>1844.91</ele>
        <time>2018-01-31T11:50:16Z</time>
      </trkpt>
      <trkpt lat="42.7379" lon="2.00461">
        <ele>1847.31</ele>
        <time>2018-01-31T11:50:32Z</time>
      </trkpt>
      <trkpt lat="42.7378" lon="2.00457">
        <ele>1850.68</ele>
        <time>2018-01-31T11:50:48Z</time>
      </trkpt>
      <trkpt lat="42.73771" lon="2.00454">
        <ele>1853.08</ele>
        <time>2018-01-31T11:51:04Z</time>
      </trkpt>
      <trkpt lat="42.73761" lon="2.0045">
        <ele>1855.48</ele>
        <time>2018-01-31T11:51:21Z</time>
      </trkpt>
      <trkpt lat="42.73752" lon="2.0044">
        <ele>1857.4</ele>
        <time>2018-01-31T11:51:37Z</time>
      </trkpt>
      <trkpt lat="42.73748" lon="2.00435">
        <ele>1858.85</ele>
        <time>2018-01-31T11:51:52Z</time>
      </trkpt>
      <trkpt lat="42.73744" lon="2.00426">
        <ele>1860.29</ele>
        <time>2018-01-31T11:52:08Z</time>
      </trkpt>
      <trkpt lat="42.73734" lon="2.00417">
        <ele>1862.69</ele>
        <time>2018-01-31T11:52:26Z</time>
      </trkpt>
      <trkpt lat="42.73726" lon="2.00412">
        <ele>1866.06</ele>
        <time>2018-01-31T11:52:40Z</time>
      </trkpt>
      <trkpt lat="42.73716" lon="2.00404">
        <ele>1868.94</ele>
        <time>2018-01-31T11:52:55Z</time>
      </trkpt>
      <trkpt lat="42.73709" lon="2.00401">
        <ele>1872.3</ele>
        <time>2018-01-31T11:53:12Z</time>
      </trkpt>
      <trkpt lat="42.73701" lon="2.00396">
        <ele>1876.15</ele>
        <time>2018-01-31T11:53:28Z</time>
      </trkpt>
      <trkpt lat="42.73695" lon="2.00399">
        <ele>1876.63</ele>
        <time>2018-01-31T11:53:42Z</time>
      </trkpt>
      <trkpt lat="42.73691" lon="2.00403">
        <ele>1880</ele>
        <time>2018-01-31T11:53:57Z</time>
      </trkpt>
      <trkpt lat="42.73686" lon="2.00405">
        <ele>1880</ele>
        <time>2018-01-31T11:54:11Z</time>
      </trkpt>
      <trkpt lat="42.73686" lon="2.00404">
        <ele>1880.48</ele>
        <time>2018-01-31T11:54:42Z</time>
      </trkpt>
      <trkpt lat="42.73689" lon="2.00403">
        <ele>1877.59</ele>
        <time>2018-01-31T11:55:16Z</time>
      </trkpt>
      <trkpt lat="42.73684" lon="2.0041">
        <ele>1878.07</ele>
        <time>2018-01-31T11:55:44Z</time>
      </trkpt>
      <trkpt lat="42.73675" lon="2.00415">
        <ele>1880.48</ele>
        <time>2018-01-31T11:55:59Z</time>
      </trkpt>
      <trkpt lat="42.73667" lon="2.00419">
        <ele>1884.32</ele>
        <time>2018-01-31T11:56:14Z</time>
      </trkpt>
      <trkpt lat="42.73659" lon="2.00421">
        <ele>1886.72</ele>
        <time>2018-01-31T11:56:29Z</time>
      </trkpt>
      <trkpt lat="42.73651" lon="2.00421">
        <ele>1887.21</ele>
        <time>2018-01-31T11:56:45Z</time>
      </trkpt>
      <trkpt lat="42.73643" lon="2.00423">
        <ele>1887.21</ele>
        <time>2018-01-31T11:57:02Z</time>
      </trkpt>
      <trkpt lat="42.73633" lon="2.00424">
        <ele>1887.69</ele>
        <time>2018-01-31T11:57:15Z</time>
      </trkpt>
      <trkpt lat="42.73624" lon="2.00425">
        <ele>1891.05</ele>
        <time>2018-01-31T11:57:28Z</time>
      </trkpt>
      <trkpt lat="42.73614" lon="2.00425">
        <ele>1892.49</ele>
        <time>2018-01-31T11:57:44Z</time>
      </trkpt>
      <trkpt lat="42.73608" lon="2.00424">
        <ele>1894.9</ele>
        <time>2018-01-31T11:57:56Z</time>
      </trkpt>
      <trkpt lat="42.73602" lon="2.00424">
        <ele>1894.9</ele>
        <time>2018-01-31T11:58:10Z</time>
      </trkpt>
      <trkpt lat="42.73602" lon="2.00424">
        <ele>1894.9</ele>
        <time>2018-01-31T11:58:35Z</time>
      </trkpt>
      <trkpt lat="42.73597" lon="2.00424">
        <ele>1895.38</ele>
        <time>2018-01-31T11:58:57Z</time>
      </trkpt>
      <trkpt lat="42.73595" lon="2.00424">
        <ele>1896.34</ele>
        <time>2018-01-31T11:59:12Z</time>
      </trkpt>
      <trkpt lat="42.73594" lon="2.00424">
        <ele>1896.34</ele>
        <time>2018-01-31T11:59:39Z</time>
      </trkpt>
      <trkpt lat="42.73594" lon="2.00424">
        <ele>1895.38</ele>
        <time>2018-01-31T12:00:06Z</time>
      </trkpt>
      <trkpt lat="42.73589" lon="2.0042">
        <ele>1896.34</ele>
        <time>2018-01-31T12:00:24Z</time>
      </trkpt>
      <trkpt lat="42.73581" lon="2.00412">
        <ele>1897.78</ele>
        <time>2018-01-31T12:00:37Z</time>
      </trkpt>
      <trkpt lat="42.73575" lon="2.00403">
        <ele>1898.74</ele>
        <time>2018-01-31T12:00:52Z</time>
      </trkpt>
      <trkpt lat="42.73567" lon="2.00397">
        <ele>1901.14</ele>
        <time>2018-01-31T12:01:06Z</time>
      </trkpt>
      <trkpt lat="42.73557" lon="2.00388">
        <ele>1902.11</ele>
        <time>2018-01-31T12:01:22Z</time>
      </trkpt>
      <trkpt lat="42.73554" lon="2.00383">
        <ele>1903.07</ele>
        <time>2018-01-31T12:01:32Z</time>
      </trkpt>
      <trkpt lat="42.73546" lon="2.00371">
        <ele>1904.03</ele>
        <time>2018-01-31T12:01:47Z</time>
      </trkpt>
      <trkpt lat="42.73539" lon="2.00358">
        <ele>1906.43</ele>
        <time>2018-01-31T12:02:04Z</time>
      </trkpt>
      <trkpt lat="42.73533" lon="2.00348">
        <ele>1907.87</ele>
        <time>2018-01-31T12:02:17Z</time>
      </trkpt>
      <trkpt lat="42.73527" lon="2.00335">
        <ele>1910.76</ele>
        <time>2018-01-31T12:02:33Z</time>
      </trkpt>
      <trkpt lat="42.73521" lon="2.00328">
        <ele>1913.64</ele>
        <time>2018-01-31T12:02:46Z</time>
      </trkpt>
      <trkpt lat="42.73517" lon="2.00321">
        <ele>1914.6</ele>
        <time>2018-01-31T12:02:59Z</time>
      </trkpt>
      <trkpt lat="42.73513" lon="2.00309">
        <ele>1915.56</ele>
        <time>2018-01-31T12:03:13Z</time>
      </trkpt>
      <trkpt lat="42.73507" lon="2.00301">
        <ele>1917.49</ele>
        <time>2018-01-31T12:03:25Z</time>
      </trkpt>
      <trkpt lat="42.73502" lon="2.00291">
        <ele>1918.93</ele>
        <time>2018-01-31T12:03:40Z</time>
      </trkpt>
      <trkpt lat="42.73495" lon="2.00283">
        <ele>1918.93</ele>
        <time>2018-01-31T12:03:54Z</time>
      </trkpt>
      <trkpt lat="42.73488" lon="2.00279">
        <ele>1918.45</ele>
        <time>2018-01-31T12:04:11Z</time>
      </trkpt>
      <trkpt lat="42.73487" lon="2.00275">
        <ele>1919.41</ele>
        <time>2018-01-31T12:04:23Z</time>
      </trkpt>
      <trkpt lat="42.73487" lon="2.00273">
        <ele>1919.41</ele>
        <time>2018-01-31T12:04:26Z</time>
      </trkpt>
      <trkpt lat="42.73484" lon="2.00265">
        <ele>1920.37</ele>
        <time>2018-01-31T12:04:34Z</time>
      </trkpt>
      <trkpt lat="42.73483" lon="2.00257">
        <ele>1920.37</ele>
        <time>2018-01-31T12:04:41Z</time>
      </trkpt>
      <trkpt lat="42.73487" lon="2.00241">
        <ele>1922.77</ele>
        <time>2018-01-31T12:04:56Z</time>
      </trkpt>
      <trkpt lat="42.73488" lon="2.00239">
        <ele>1923.25</ele>
        <time>2018-01-31T12:04:59Z</time>
      </trkpt>
      <trkpt lat="42.73494" lon="2.00224">
        <ele>1925.66</ele>
        <time>2018-01-31T12:05:16Z</time>
      </trkpt>
      <trkpt lat="42.73495" lon="2.00222">
        <ele>1926.62</ele>
        <time>2018-01-31T12:05:30Z</time>
      </trkpt>
      <trkpt lat="42.73498" lon="2.00211">
        <ele>1927.1</ele>
        <time>2018-01-31T12:05:49Z</time>
      </trkpt>
      <trkpt lat="42.73501" lon="2.00202">
        <ele>1928.06</ele>
        <time>2018-01-31T12:06:02Z</time>
      </trkpt>
      <trkpt lat="42.73506" lon="2.00195">
        <ele>1930.46</ele>
        <time>2018-01-31T12:06:18Z</time>
      </trkpt>
      <trkpt lat="42.7351" lon="2.00186">
        <ele>1931.91</ele>
        <time>2018-01-31T12:06:34Z</time>
      </trkpt>
      <trkpt lat="42.73514" lon="2.00174">
        <ele>1933.83</ele>
        <time>2018-01-31T12:06:50Z</time>
      </trkpt>
      <trkpt lat="42.73518" lon="2.00167">
        <ele>1935.27</ele>
        <time>2018-01-31T12:07:02Z</time>
      </trkpt>
      <trkpt lat="42.73521" lon="2.00158">
        <ele>1937.19</ele>
        <time>2018-01-31T12:07:15Z</time>
      </trkpt>
      <trkpt lat="42.73521" lon="2.00159">
        <ele>1935.75</ele>
        <time>2018-01-31T12:07:35Z</time>
      </trkpt>
      <trkpt lat="42.73521" lon="2.00158">
        <ele>1933.83</ele>
        <time>2018-01-31T12:08:04Z</time>
      </trkpt>
      <trkpt lat="42.73523" lon="2.00152">
        <ele>1933.35</ele>
        <time>2018-01-31T12:08:15Z</time>
      </trkpt>
      <trkpt lat="42.73531" lon="2.00137">
        <ele>1935.27</ele>
        <time>2018-01-31T12:08:31Z</time>
      </trkpt>
      <trkpt lat="42.73531" lon="2.00135">
        <ele>1935.27</ele>
        <time>2018-01-31T12:08:33Z</time>
      </trkpt>
      <trkpt lat="42.73537" lon="2.00123">
        <ele>1936.71</ele>
        <time>2018-01-31T12:08:48Z</time>
      </trkpt>
      <trkpt lat="42.73543" lon="2.00112">
        <ele>1939.6</ele>
        <time>2018-01-31T12:09:03Z</time>
      </trkpt>
      <trkpt lat="42.7355" lon="2.00098">
        <ele>1941.52</ele>
        <time>2018-01-31T12:09:18Z</time>
      </trkpt>
      <trkpt lat="42.73552" lon="2.00091">
        <ele>1942.48</ele>
        <time>2018-01-31T12:09:25Z</time>
      </trkpt>
      <trkpt lat="42.73555" lon="2.00079">
        <ele>1942</ele>
        <time>2018-01-31T12:09:40Z</time>
      </trkpt>
      <trkpt lat="42.73556" lon="2.0008">
        <ele>1941.52</ele>
        <time>2018-01-31T12:10:08Z</time>
      </trkpt>
      <trkpt lat="42.73557" lon="2.00078">
        <ele>1941.04</ele>
        <time>2018-01-31T12:10:31Z</time>
      </trkpt>
      <trkpt lat="42.73555" lon="2.00079">
        <ele>1940.56</ele>
        <time>2018-01-31T12:11:01Z</time>
      </trkpt>
      <trkpt lat="42.73557" lon="2.0007">
        <ele>1941.52</ele>
        <time>2018-01-31T12:11:13Z</time>
      </trkpt>
      <trkpt lat="42.73561" lon="2.00056">
        <ele>1943.44</ele>
        <time>2018-01-31T12:11:29Z</time>
      </trkpt>
      <trkpt lat="42.73568" lon="2.00048">
        <ele>1945.36</ele>
        <time>2018-01-31T12:11:43Z</time>
      </trkpt>
      <trkpt lat="42.73575" lon="2.00038">
        <ele>1946.81</ele>
        <time>2018-01-31T12:11:57Z</time>
      </trkpt>
      <trkpt lat="42.73579" lon="2.0003">
        <ele>1948.73</ele>
        <time>2018-01-31T12:12:10Z</time>
      </trkpt>
      <trkpt lat="42.73581" lon="2.00024">
        <ele>1948.25</ele>
        <time>2018-01-31T12:12:35Z</time>
      </trkpt>
      <trkpt lat="42.73582" lon="2.00019">
        <ele>1948.25</ele>
        <time>2018-01-31T12:12:58Z</time>
      </trkpt>
      <trkpt lat="42.73585" lon="2.00005">
        <ele>1949.69</ele>
        <time>2018-01-31T12:13:12Z</time>
      </trkpt>
      <trkpt lat="42.7359" lon="1.9999">
        <ele>1952.57</ele>
        <time>2018-01-31T12:13:27Z</time>
      </trkpt>
      <trkpt lat="42.7359" lon="1.9999">
        <ele>1952.57</ele>
        <time>2018-01-31T12:13:44Z</time>
      </trkpt>
      <trkpt lat="42.73591" lon="1.99989">
        <ele>1950.65</ele>
        <time>2018-01-31T12:14:21Z</time>
      </trkpt>
      <trkpt lat="42.73592" lon="1.99987">
        <ele>1952.09</ele>
        <time>2018-01-31T12:14:50Z</time>
      </trkpt>
      <trkpt lat="42.73595" lon="1.99981">
        <ele>1953.06</ele>
        <time>2018-01-31T12:15:02Z</time>
      </trkpt>
      <trkpt lat="42.73595" lon="1.9998">
        <ele>1953.06</ele>
        <time>2018-01-31T12:15:04Z</time>
      </trkpt>
      <trkpt lat="42.73588" lon="1.99971">
        <ele>1954.5</ele>
        <time>2018-01-31T12:15:18Z</time>
      </trkpt>
      <trkpt lat="42.73582" lon="1.99961">
        <ele>1956.42</ele>
        <time>2018-01-31T12:15:31Z</time>
      </trkpt>
      <trkpt lat="42.73579" lon="1.99957">
        <ele>1956.42</ele>
        <time>2018-01-31T12:15:43Z</time>
      </trkpt>
      <trkpt lat="42.73574" lon="1.99947">
        <ele>1959.3</ele>
        <time>2018-01-31T12:15:56Z</time>
      </trkpt>
      <trkpt lat="42.7357" lon="1.99938">
        <ele>1961.23</ele>
        <time>2018-01-31T12:16:11Z</time>
      </trkpt>
      <trkpt lat="42.73566" lon="1.99927">
        <ele>1963.63</ele>
        <time>2018-01-31T12:16:24Z</time>
      </trkpt>
      <trkpt lat="42.73562" lon="1.99913">
        <ele>1965.55</ele>
        <time>2018-01-31T12:16:40Z</time>
      </trkpt>
      <trkpt lat="42.73559" lon="1.99899">
        <ele>1967.48</ele>
        <time>2018-01-31T12:16:56Z</time>
      </trkpt>
      <trkpt lat="42.73555" lon="1.99888">
        <ele>1968.92</ele>
        <time>2018-01-31T12:17:10Z</time>
      </trkpt>
      <trkpt lat="42.73554" lon="1.99883">
        <ele>1968.44</ele>
        <time>2018-01-31T12:17:16Z</time>
      </trkpt>
      <trkpt lat="42.73549" lon="1.99869">
        <ele>1969.4</ele>
        <time>2018-01-31T12:17:32Z</time>
      </trkpt>
      <trkpt lat="42.73543" lon="1.99855">
        <ele>1971.32</ele>
        <time>2018-01-31T12:17:48Z</time>
      </trkpt>
      <trkpt lat="42.73537" lon="1.99848">
        <ele>1972.28</ele>
        <time>2018-01-31T12:18:04Z</time>
      </trkpt>
      <trkpt lat="42.73536" lon="1.99848">
        <ele>1971.8</ele>
        <time>2018-01-31T12:18:18Z</time>
      </trkpt>
      <trkpt lat="42.73536" lon="1.99848">
        <ele>1973.24</ele>
        <time>2018-01-31T12:18:47Z</time>
      </trkpt>
      <trkpt lat="42.73535" lon="1.99848">
        <ele>1973.24</ele>
        <time>2018-01-31T12:19:07Z</time>
      </trkpt>
      <trkpt lat="42.73536" lon="1.99847">
        <ele>1974.69</ele>
        <time>2018-01-31T12:19:26Z</time>
      </trkpt>
      <trkpt lat="42.73536" lon="1.99843">
        <ele>1975.17</ele>
        <time>2018-01-31T12:19:31Z</time>
      </trkpt>
      <trkpt lat="42.73534" lon="1.99829">
        <ele>1976.61</ele>
        <time>2018-01-31T12:19:44Z</time>
      </trkpt>
      <trkpt lat="42.73532" lon="1.99812">
        <ele>1977.57</ele>
        <time>2018-01-31T12:19:58Z</time>
      </trkpt>
      <trkpt lat="42.73531" lon="1.99798">
        <ele>1977.09</ele>
        <time>2018-01-31T12:20:14Z</time>
      </trkpt>
      <trkpt lat="42.7353" lon="1.99791">
        <ele>1977.09</ele>
        <time>2018-01-31T12:20:24Z</time>
      </trkpt>
      <trkpt lat="42.73531" lon="1.99782">
        <ele>1977.09</ele>
        <time>2018-01-31T12:20:31Z</time>
      </trkpt>
      <trkpt lat="42.73529" lon="1.99762">
        <ele>1977.09</ele>
        <time>2018-01-31T12:20:44Z</time>
      </trkpt>
      <trkpt lat="42.73526" lon="1.99741">
        <ele>1976.61</ele>
        <time>2018-01-31T12:21:00Z</time>
      </trkpt>
      <trkpt lat="42.73526" lon="1.99739">
        <ele>1976.13</ele>
        <time>2018-01-31T12:21:02Z</time>
      </trkpt>
      <trkpt lat="42.73524" lon="1.99721">
        <ele>1976.13</ele>
        <time>2018-01-31T12:21:16Z</time>
      </trkpt>
      <trkpt lat="42.73522" lon="1.99702">
        <ele>1975.17</ele>
        <time>2018-01-31T12:21:31Z</time>
      </trkpt>
      <trkpt lat="42.73521" lon="1.9968">
        <ele>1974.2</ele>
        <time>2018-01-31T12:21:45Z</time>
      </trkpt>
      <trkpt lat="42.73521" lon="1.99661">
        <ele>1973.72</ele>
        <time>2018-01-31T12:21:56Z</time>
      </trkpt>
      <trkpt lat="42.73521" lon="1.99645">
        <ele>1972.76</ele>
        <time>2018-01-31T12:22:04Z</time>
      </trkpt>
      <trkpt lat="42.73521" lon="1.99637">
        <ele>1972.28</ele>
        <time>2018-01-31T12:22:08Z</time>
      </trkpt>
      <trkpt lat="42.73521" lon="1.99628">
        <ele>1971.8</ele>
        <time>2018-01-31T12:22:13Z</time>
      </trkpt>
      <trkpt lat="42.73518" lon="1.99604">
        <ele>1970.36</ele>
        <time>2018-01-31T12:22:29Z</time>
      </trkpt>
      <trkpt lat="42.73514" lon="1.99586">
        <ele>1970.36</ele>
        <time>2018-01-31T12:22:43Z</time>
      </trkpt>
      <trkpt lat="42.73512" lon="1.99575">
        <ele>1971.32</ele>
        <time>2018-01-31T12:22:52Z</time>
      </trkpt>
      <trkpt lat="42.73508" lon="1.99555">
        <ele>1971.8</ele>
        <time>2018-01-31T12:23:07Z</time>
      </trkpt>
      <trkpt lat="42.73505" lon="1.99539">
        <ele>1972.28</ele>
        <time>2018-01-31T12:23:22Z</time>
      </trkpt>
      <trkpt lat="42.73501" lon="1.99524">
        <ele>1972.76</ele>
        <time>2018-01-31T12:23:37Z</time>
      </trkpt>
      <trkpt lat="42.73501" lon="1.99523">
        <ele>1972.28</ele>
        <time>2018-01-31T12:23:58Z</time>
      </trkpt>
      <trkpt lat="42.735" lon="1.99522">
        <ele>1971.8</ele>
        <time>2018-01-31T12:24:29Z</time>
      </trkpt>
      <trkpt lat="42.735" lon="1.99513">
        <ele>1974.2</ele>
        <time>2018-01-31T12:24:53Z</time>
      </trkpt>
      <trkpt lat="42.735" lon="1.995">
        <ele>1976.13</ele>
        <time>2018-01-31T12:25:08Z</time>
      </trkpt>
      <trkpt lat="42.73498" lon="1.99486">
        <ele>1977.57</ele>
        <time>2018-01-31T12:25:22Z</time>
      </trkpt>
      <trkpt lat="42.73496" lon="1.99469">
        <ele>1979.01</ele>
        <time>2018-01-31T12:25:39Z</time>
      </trkpt>
      <trkpt lat="42.73492" lon="1.99455">
        <ele>1979.97</ele>
        <time>2018-01-31T12:25:53Z</time>
      </trkpt>
      <trkpt lat="42.73489" lon="1.99444">
        <ele>1980.45</ele>
        <time>2018-01-31T12:26:07Z</time>
      </trkpt>
      <trkpt lat="42.73482" lon="1.99432">
        <ele>1981.41</ele>
        <time>2018-01-31T12:26:22Z</time>
      </trkpt>
      <trkpt lat="42.73476" lon="1.99425">
        <ele>1982.38</ele>
        <time>2018-01-31T12:26:34Z</time>
      </trkpt>
      <trkpt lat="42.73466" lon="1.99416">
        <ele>1983.34</ele>
        <time>2018-01-31T12:26:50Z</time>
      </trkpt>
      <trkpt lat="42.73463" lon="1.99416">
        <ele>1984.3</ele>
        <time>2018-01-31T12:27:00Z</time>
      </trkpt>
      <trkpt lat="42.73456" lon="1.99412">
        <ele>1985.74</ele>
        <time>2018-01-31T12:27:10Z</time>
      </trkpt>
      <trkpt lat="42.73449" lon="1.99403">
        <ele>1986.7</ele>
        <time>2018-01-31T12:27:25Z</time>
      </trkpt>
      <trkpt lat="42.73448" lon="1.99402">
        <ele>1988.14</ele>
        <time>2018-01-31T12:27:39Z</time>
      </trkpt>
      <trkpt lat="42.73443" lon="1.99397">
        <ele>1989.59</ele>
        <time>2018-01-31T12:28:07Z</time>
      </trkpt>
      <trkpt lat="42.73441" lon="1.99396">
        <ele>1989.59</ele>
        <time>2018-01-31T12:28:11Z</time>
      </trkpt>
      <trkpt lat="42.73431" lon="1.99387">
        <ele>1990.07</ele>
        <time>2018-01-31T12:28:26Z</time>
      </trkpt>
      <trkpt lat="42.73423" lon="1.99381">
        <ele>1991.51</ele>
        <time>2018-01-31T12:28:40Z</time>
      </trkpt>
      <trkpt lat="42.73421" lon="1.99378">
        <ele>1991.51</ele>
        <time>2018-01-31T12:28:52Z</time>
      </trkpt>
      <trkpt lat="42.73421" lon="1.99378">
        <ele>1990.07</ele>
        <time>2018-01-31T12:29:10Z</time>
      </trkpt>
      <trkpt lat="42.73419" lon="1.99378">
        <ele>1990.55</ele>
        <time>2018-01-31T12:29:39Z</time>
      </trkpt>
      <trkpt lat="42.73422" lon="1.99378">
        <ele>1990.07</ele>
        <time>2018-01-31T12:30:09Z</time>
      </trkpt>
      <trkpt lat="42.73417" lon="1.99379">
        <ele>1991.99</ele>
        <time>2018-01-31T12:30:20Z</time>
      </trkpt>
      <trkpt lat="42.73417" lon="1.99381">
        <ele>1992.47</ele>
        <time>2018-01-31T12:30:31Z</time>
      </trkpt>
      <trkpt lat="42.73418" lon="1.99385">
        <ele>1991.99</ele>
        <time>2018-01-31T12:30:41Z</time>
      </trkpt>
      <trkpt lat="42.73418" lon="1.99388">
        <ele>1990.55</ele>
        <time>2018-01-31T12:30:53Z</time>
      </trkpt>
      <trkpt lat="42.73417" lon="1.99389">
        <ele>1990.55</ele>
        <time>2018-01-31T12:30:54Z</time>
      </trkpt>
      <trkpt lat="42.73417" lon="1.99389">
        <ele>1989.59</ele>
        <time>2018-01-31T12:31:13Z</time>
      </trkpt>
      <trkpt lat="42.73417" lon="1.99389">
        <ele>1989.59</ele>
        <time>2018-01-31T12:31:53Z</time>
      </trkpt>
      <trkpt lat="42.73418" lon="1.99389">
        <ele>1989.1</ele>
        <time>2018-01-31T12:32:08Z</time>
      </trkpt>
      <trkpt lat="42.73418" lon="1.99388">
        <ele>1989.1</ele>
        <time>2018-01-31T12:32:39Z</time>
      </trkpt>
      <trkpt lat="42.73418" lon="1.99389">
        <ele>1988.62</ele>
        <time>2018-01-31T12:33:10Z</time>
      </trkpt>
      <trkpt lat="42.73418" lon="1.99389">
        <ele>1988.62</ele>
        <time>2018-01-31T12:33:47Z</time>
      </trkpt>
      <trkpt lat="42.73416" lon="1.99389">
        <ele>1988.62</ele>
        <time>2018-01-31T12:34:26Z</time>
      </trkpt>
      <trkpt lat="42.73417" lon="1.99387">
        <ele>1986.22</ele>
        <time>2018-01-31T12:34:57Z</time>
      </trkpt>
      <trkpt lat="42.73418" lon="1.99386">
        <ele>1983.34</ele>
        <time>2018-01-31T12:35:37Z</time>
      </trkpt>
      <trkpt lat="42.73418" lon="1.99385">
        <ele>1982.38</ele>
        <time>2018-01-31T12:36:12Z</time>
      </trkpt>
      <trkpt lat="42.73417" lon="1.99386">
        <ele>1982.38</ele>
        <time>2018-01-31T12:36:40Z</time>
      </trkpt>
      <trkpt lat="42.73417" lon="1.99386">
        <ele>1982.86</ele>
        <time>2018-01-31T12:37:16Z</time>
      </trkpt>
      <trkpt lat="42.73416" lon="1.99386">
        <ele>1981.9</ele>
        <time>2018-01-31T12:38:00Z</time>
      </trkpt>
      <trkpt lat="42.73416" lon="1.99386">
        <ele>1981.41</ele>
        <time>2018-01-31T12:38:38Z</time>
      </trkpt>
      <trkpt lat="42.73416" lon="1.99386">
        <ele>1981.9</ele>
        <time>2018-01-31T12:39:11Z</time>
      </trkpt>
      <trkpt lat="42.73417" lon="1.99386">
        <ele>1981.41</ele>
        <time>2018-01-31T12:39:44Z</time>
      </trkpt>
      <trkpt lat="42.73417" lon="1.99386">
        <ele>1982.86</ele>
        <time>2018-01-31T12:40:18Z</time>
      </trkpt>
      <trkpt lat="42.73417" lon="1.99385">
        <ele>1980.45</ele>
        <time>2018-01-31T12:40:40Z</time>
      </trkpt>
      <trkpt lat="42.73417" lon="1.99386">
        <ele>1981.9</ele>
        <time>2018-01-31T12:41:15Z</time>
      </trkpt>
      <trkpt lat="42.73417" lon="1.99386">
        <ele>1982.86</ele>
        <time>2018-01-31T12:41:52Z</time>
      </trkpt>
      <trkpt lat="42.73417" lon="1.99386">
        <ele>1982.86</ele>
        <time>2018-01-31T12:42:25Z</time>
      </trkpt>
      <trkpt lat="42.73417" lon="1.99386">
        <ele>1983.34</ele>
        <time>2018-01-31T12:43:08Z</time>
      </trkpt>
      <trkpt lat="42.73415" lon="1.99386">
        <ele>1983.34</ele>
        <time>2018-01-31T12:43:39Z</time>
      </trkpt>
      <trkpt lat="42.73415" lon="1.99386">
        <ele>1982.86</ele>
        <time>2018-01-31T12:44:08Z</time>
      </trkpt>
      <trkpt lat="42.73416" lon="1.99386">
        <ele>1982.38</ele>
        <time>2018-01-31T12:44:38Z</time>
      </trkpt>
      <trkpt lat="42.73416" lon="1.99386">
        <ele>1982.38</ele>
        <time>2018-01-31T12:45:07Z</time>
      </trkpt>
      <trkpt lat="42.73416" lon="1.99386">
        <ele>1981.41</ele>
        <time>2018-01-31T12:45:39Z</time>
      </trkpt>
      <trkpt lat="42.73417" lon="1.99386">
        <ele>1980.93</ele>
        <time>2018-01-31T12:46:13Z</time>
      </trkpt>
      <trkpt lat="42.73416" lon="1.99386">
        <ele>1981.41</ele>
        <time>2018-01-31T12:46:54Z</time>
      </trkpt>
      <trkpt lat="42.73417" lon="1.99387">
        <ele>1980.45</ele>
        <time>2018-01-31T12:47:23Z</time>
      </trkpt>
      <trkpt lat="42.73418" lon="1.99387">
        <ele>1981.9</ele>
        <time>2018-01-31T12:48:03Z</time>
      </trkpt>
      <trkpt lat="42.73419" lon="1.99387">
        <ele>1982.38</ele>
        <time>2018-01-31T12:48:37Z</time>
      </trkpt>
      <trkpt lat="42.73418" lon="1.99386">
        <ele>1982.38</ele>
        <time>2018-01-31T12:49:16Z</time>
      </trkpt>
      <trkpt lat="42.73417" lon="1.99387">
        <ele>1981.41</ele>
        <time>2018-01-31T12:49:48Z</time>
      </trkpt>
      <trkpt lat="42.73417" lon="1.99387">
        <ele>1982.38</ele>
        <time>2018-01-31T12:50:05Z</time>
      </trkpt>
      <trkpt lat="42.73419" lon="1.99387">
        <ele>1984.78</ele>
        <time>2018-01-31T12:50:44Z</time>
      </trkpt>
      <trkpt lat="42.7342" lon="1.99386">
        <ele>1987.18</ele>
        <time>2018-01-31T12:51:21Z</time>
      </trkpt>
      <trkpt lat="42.73418" lon="1.99386">
        <ele>1987.18</ele>
        <time>2018-01-31T12:51:54Z</time>
      </trkpt>
      <trkpt lat="42.73419" lon="1.99386">
        <ele>1989.1</ele>
        <time>2018-01-31T12:52:29Z</time>
      </trkpt>
      <trkpt lat="42.73419" lon="1.99387">
        <ele>1988.14</ele>
        <time>2018-01-31T12:53:03Z</time>
      </trkpt>
      <trkpt lat="42.73419" lon="1.99388">
        <ele>1986.22</ele>
        <time>2018-01-31T12:53:39Z</time>
      </trkpt>
      <trkpt lat="42.73418" lon="1.99387">
        <ele>1988.14</ele>
        <time>2018-01-31T12:54:15Z</time>
      </trkpt>
      <trkpt lat="42.73419" lon="1.99388">
        <ele>1988.62</ele>
        <time>2018-01-31T12:54:48Z</time>
      </trkpt>
      <trkpt lat="42.73417" lon="1.99388">
        <ele>1987.18</ele>
        <time>2018-01-31T12:55:18Z</time>
      </trkpt>
      <trkpt lat="42.73415" lon="1.99389">
        <ele>1982.38</ele>
        <time>2018-01-31T12:56:00Z</time>
      </trkpt>
      <trkpt lat="42.73414" lon="1.99389">
        <ele>1980.93</ele>
        <time>2018-01-31T12:56:40Z</time>
      </trkpt>
      <trkpt lat="42.73415" lon="1.99389">
        <ele>1980.93</ele>
        <time>2018-01-31T12:57:06Z</time>
      </trkpt>
      <trkpt lat="42.73416" lon="1.99387">
        <ele>1982.38</ele>
        <time>2018-01-31T12:57:22Z</time>
      </trkpt>
      <trkpt lat="42.73416" lon="1.99387">
        <ele>1984.78</ele>
        <time>2018-01-31T12:57:53Z</time>
      </trkpt>
      <trkpt lat="42.73416" lon="1.99388">
        <ele>1985.26</ele>
        <time>2018-01-31T12:58:23Z</time>
      </trkpt>
      <trkpt lat="42.73416" lon="1.99388">
        <ele>1984.3</ele>
        <time>2018-01-31T12:58:53Z</time>
      </trkpt>
      <trkpt lat="42.73416" lon="1.99387">
        <ele>1982.86</ele>
        <time>2018-01-31T12:59:12Z</time>
      </trkpt>
      <trkpt lat="42.73415" lon="1.99387">
        <ele>1980.93</ele>
        <time>2018-01-31T12:59:43Z</time>
      </trkpt>
      <trkpt lat="42.73417" lon="1.99387">
        <ele>1982.38</ele>
        <time>2018-01-31T13:00:11Z</time>
      </trkpt>
      <trkpt lat="42.73417" lon="1.99387">
        <ele>1982.38</ele>
        <time>2018-01-31T13:00:43Z</time>
      </trkpt>
      <trkpt lat="42.73416" lon="1.99386">
        <ele>1981.9</ele>
        <time>2018-01-31T13:01:35Z</time>
      </trkpt>
      <trkpt lat="42.73416" lon="1.99386">
        <ele>1981.9</ele>
        <time>2018-01-31T13:02:34Z</time>
      </trkpt>
      <trkpt lat="42.73416" lon="1.99386">
        <ele>1982.38</ele>
        <time>2018-01-31T13:03:17Z</time>
      </trkpt>
      <trkpt lat="42.73417" lon="1.99386">
        <ele>1980.93</ele>
        <time>2018-01-31T13:03:59Z</time>
      </trkpt>
      <trkpt lat="42.73417" lon="1.99386">
        <ele>1979.97</ele>
        <time>2018-01-31T13:04:51Z</time>
      </trkpt>
      <trkpt lat="42.73417" lon="1.99387">
        <ele>1981.41</ele>
        <time>2018-01-31T13:05:27Z</time>
      </trkpt>
      <trkpt lat="42.73418" lon="1.99387">
        <ele>1983.82</ele>
        <time>2018-01-31T13:05:46Z</time>
      </trkpt>
      <trkpt lat="42.73417" lon="1.99385">
        <ele>1983.82</ele>
        <time>2018-01-31T13:05:52Z</time>
      </trkpt>
      <trkpt lat="42.73414" lon="1.99378">
        <ele>1983.82</ele>
        <time>2018-01-31T13:06:04Z</time>
      </trkpt>
      <trkpt lat="42.73413" lon="1.99374">
        <ele>1982.86</ele>
        <time>2018-01-31T13:06:16Z</time>
      </trkpt>
      <trkpt lat="42.73413" lon="1.99375">
        <ele>1981.9</ele>
        <time>2018-01-31T13:06:26Z</time>
      </trkpt>
      <trkpt lat="42.73413" lon="1.99373">
        <ele>1980.45</ele>
        <time>2018-01-31T13:06:41Z</time>
      </trkpt>
      <trkpt lat="42.73413" lon="1.99375">
        <ele>1982.86</ele>
        <time>2018-01-31T13:07:00Z</time>
      </trkpt>
      <trkpt lat="42.73412" lon="1.99376">
        <ele>1983.82</ele>
        <time>2018-01-31T13:07:12Z</time>
      </trkpt>
      <trkpt lat="42.73412" lon="1.99376">
        <ele>1985.26</ele>
        <time>2018-01-31T13:07:34Z</time>
      </trkpt>
      <trkpt lat="42.73413" lon="1.99376">
        <ele>1986.7</ele>
        <time>2018-01-31T13:07:57Z</time>
      </trkpt>
      <trkpt lat="42.73412" lon="1.99375">
        <ele>1988.14</ele>
        <time>2018-01-31T13:08:21Z</time>
      </trkpt>
      <trkpt lat="42.73412" lon="1.99374">
        <ele>1986.7</ele>
        <time>2018-01-31T13:08:37Z</time>
      </trkpt>
      <trkpt lat="42.73411" lon="1.99373">
        <ele>1988.14</ele>
        <time>2018-01-31T13:08:52Z</time>
      </trkpt>
      <trkpt lat="42.7341" lon="1.99371">
        <ele>1990.07</ele>
        <time>2018-01-31T13:09:11Z</time>
      </trkpt>
      <trkpt lat="42.73404" lon="1.99365">
        <ele>1989.1</ele>
        <time>2018-01-31T13:09:21Z</time>
      </trkpt>
      <trkpt lat="42.73396" lon="1.99353">
        <ele>1987.66</ele>
        <time>2018-01-31T13:09:36Z</time>
      </trkpt>
      <trkpt lat="42.73388" lon="1.99342">
        <ele>1988.14</ele>
        <time>2018-01-31T13:09:50Z</time>
      </trkpt>
      <trkpt lat="42.73384" lon="1.99333">
        <ele>1988.62</ele>
        <time>2018-01-31T13:10:00Z</time>
      </trkpt>
      <trkpt lat="42.7338" lon="1.99326">
        <ele>1989.1</ele>
        <time>2018-01-31T13:10:08Z</time>
      </trkpt>
      <trkpt lat="42.73374" lon="1.99313">
        <ele>1991.03</ele>
        <time>2018-01-31T13:10:23Z</time>
      </trkpt>
      <trkpt lat="42.73371" lon="1.99311">
        <ele>1991.51</ele>
        <time>2018-01-31T13:10:27Z</time>
      </trkpt>
      <trkpt lat="42.73363" lon="1.99303">
        <ele>1991.51</ele>
        <time>2018-01-31T13:10:41Z</time>
      </trkpt>
      <trkpt lat="42.73356" lon="1.99297">
        <ele>1992.47</ele>
        <time>2018-01-31T13:10:53Z</time>
      </trkpt>
      <trkpt lat="42.73348" lon="1.993">
        <ele>1993.43</ele>
        <time>2018-01-31T13:11:06Z</time>
      </trkpt>
      <trkpt lat="42.7334" lon="1.993">
        <ele>1994.39</ele>
        <time>2018-01-31T13:11:17Z</time>
      </trkpt>
      <trkpt lat="42.73333" lon="1.99295">
        <ele>1995.35</ele>
        <time>2018-01-31T13:11:30Z</time>
      </trkpt>
      <trkpt lat="42.73323" lon="1.99285">
        <ele>1996.32</ele>
        <time>2018-01-31T13:11:45Z</time>
      </trkpt>
      <trkpt lat="42.73317" lon="1.99279">
        <ele>1996.8</ele>
        <time>2018-01-31T13:11:53Z</time>
      </trkpt>
      <trkpt lat="42.7331" lon="1.99273">
        <ele>1995.35</ele>
        <time>2018-01-31T13:12:07Z</time>
      </trkpt>
      <trkpt lat="42.73303" lon="1.99267">
        <ele>1995.83</ele>
        <time>2018-01-31T13:12:24Z</time>
      </trkpt>
      <trkpt lat="42.73292" lon="1.99258">
        <ele>1995.83</ele>
        <time>2018-01-31T13:12:40Z</time>
      </trkpt>
      <trkpt lat="42.73274" lon="1.99235">
        <ele>1991.51</ele>
        <time>2018-01-31T13:12:53Z</time>
      </trkpt>
      <trkpt lat="42.73263" lon="1.99221">
        <ele>1989.1</ele>
        <time>2018-01-31T13:13:06Z</time>
      </trkpt>
      <trkpt lat="42.73247" lon="1.99205">
        <ele>1987.66</ele>
        <time>2018-01-31T13:13:21Z</time>
      </trkpt>
      <trkpt lat="42.73228" lon="1.99185">
        <ele>1984.78</ele>
        <time>2018-01-31T13:13:35Z</time>
      </trkpt>
      <trkpt lat="42.73213" lon="1.99163">
        <ele>1981.41</ele>
        <time>2018-01-31T13:13:49Z</time>
      </trkpt>
      <trkpt lat="42.732" lon="1.99141">
        <ele>1978.53</ele>
        <time>2018-01-31T13:14:03Z</time>
      </trkpt>
      <trkpt lat="42.73199" lon="1.99139">
        <ele>1979.01</ele>
        <time>2018-01-31T13:14:19Z</time>
      </trkpt>
      <trkpt lat="42.73193" lon="1.99131">
        <ele>1980.45</ele>
        <time>2018-01-31T13:14:42Z</time>
      </trkpt>
      <trkpt lat="42.73175" lon="1.99106">
        <ele>1976.13</ele>
        <time>2018-01-31T13:14:55Z</time>
      </trkpt>
      <trkpt lat="42.73155" lon="1.99076">
        <ele>1970.36</ele>
        <time>2018-01-31T13:15:09Z</time>
      </trkpt>
      <trkpt lat="42.73139" lon="1.99053">
        <ele>1966.03</ele>
        <time>2018-01-31T13:15:16Z</time>
      </trkpt>
      <trkpt lat="42.73106" lon="1.99017">
        <ele>1957.86</ele>
        <time>2018-01-31T13:15:28Z</time>
      </trkpt>
      <trkpt lat="42.73091" lon="1.99004">
        <ele>1954.98</ele>
        <time>2018-01-31T13:15:37Z</time>
      </trkpt>
      <trkpt lat="42.73077" lon="1.98992">
        <ele>1955.94</ele>
        <time>2018-01-31T13:15:50Z</time>
      </trkpt>
      <trkpt lat="42.73066" lon="1.9898">
        <ele>1955.46</ele>
        <time>2018-01-31T13:16:03Z</time>
      </trkpt>
      <trkpt lat="42.73054" lon="1.98966">
        <ele>1954.02</ele>
        <time>2018-01-31T13:16:17Z</time>
      </trkpt>
      <trkpt lat="42.73044" lon="1.98954">
        <ele>1953.06</ele>
        <time>2018-01-31T13:16:31Z</time>
      </trkpt>
      <trkpt lat="42.73033" lon="1.98941">
        <ele>1953.54</ele>
        <time>2018-01-31T13:16:47Z</time>
      </trkpt>
      <trkpt lat="42.73024" lon="1.9893">
        <ele>1954.02</ele>
        <time>2018-01-31T13:17:02Z</time>
      </trkpt>
      <trkpt lat="42.73019" lon="1.98924">
        <ele>1954.5</ele>
        <time>2018-01-31T13:17:10Z</time>
      </trkpt>
      <trkpt lat="42.73013" lon="1.98917">
        <ele>1954.98</ele>
        <time>2018-01-31T13:17:20Z</time>
      </trkpt>
      <trkpt lat="42.73003" lon="1.98907">
        <ele>1956.42</ele>
        <time>2018-01-31T13:17:35Z</time>
      </trkpt>
      <trkpt lat="42.72993" lon="1.98896">
        <ele>1958.34</ele>
        <time>2018-01-31T13:17:51Z</time>
      </trkpt>
      <trkpt lat="42.72982" lon="1.98885">
        <ele>1960.27</ele>
        <time>2018-01-31T13:18:07Z</time>
      </trkpt>
      <trkpt lat="42.72972" lon="1.98877">
        <ele>1961.71</ele>
        <time>2018-01-31T13:18:22Z</time>
      </trkpt>
      <trkpt lat="42.72963" lon="1.98869">
        <ele>1962.67</ele>
        <time>2018-01-31T13:18:32Z</time>
      </trkpt>
      <trkpt lat="42.72952" lon="1.98859">
        <ele>1962.19</ele>
        <time>2018-01-31T13:18:47Z</time>
      </trkpt>
      <trkpt lat="42.72952" lon="1.98857">
        <ele>1962.67</ele>
        <time>2018-01-31T13:19:20Z</time>
      </trkpt>
      <trkpt lat="42.72943" lon="1.98851">
        <ele>1963.63</ele>
        <time>2018-01-31T13:19:33Z</time>
      </trkpt>
      <trkpt lat="42.72932" lon="1.98842">
        <ele>1964.59</ele>
        <time>2018-01-31T13:19:49Z</time>
      </trkpt>
      <trkpt lat="42.7292" lon="1.98833">
        <ele>1965.55</ele>
        <time>2018-01-31T13:20:04Z</time>
      </trkpt>
      <trkpt lat="42.72913" lon="1.98829">
        <ele>1966.99</ele>
        <time>2018-01-31T13:20:14Z</time>
      </trkpt>
      <trkpt lat="42.72904" lon="1.98822">
        <ele>1969.4</ele>
        <time>2018-01-31T13:20:27Z</time>
      </trkpt>
      <trkpt lat="42.72895" lon="1.98814">
        <ele>1969.4</ele>
        <time>2018-01-31T13:20:42Z</time>
      </trkpt>
      <trkpt lat="42.72888" lon="1.98808">
        <ele>1970.84</ele>
        <time>2018-01-31T13:20:55Z</time>
      </trkpt>
      <trkpt lat="42.7288" lon="1.98803">
        <ele>1972.28</ele>
        <time>2018-01-31T13:21:07Z</time>
      </trkpt>
      <trkpt lat="42.72875" lon="1.98801">
        <ele>1972.76</ele>
        <time>2018-01-31T13:21:14Z</time>
      </trkpt>
      <trkpt lat="42.72865" lon="1.98795">
        <ele>1974.2</ele>
        <time>2018-01-31T13:21:27Z</time>
      </trkpt>
      <trkpt lat="42.72852" lon="1.98791">
        <ele>1975.17</ele>
        <time>2018-01-31T13:21:41Z</time>
      </trkpt>
      <trkpt lat="42.72842" lon="1.98788">
        <ele>1977.57</ele>
        <time>2018-01-31T13:21:54Z</time>
      </trkpt>
      <trkpt lat="42.72842" lon="1.98787">
        <ele>1979.01</ele>
        <time>2018-01-31T13:22:15Z</time>
      </trkpt>
      <trkpt lat="42.72841" lon="1.98787">
        <ele>1978.53</ele>
        <time>2018-01-31T13:22:51Z</time>
      </trkpt>
      <trkpt lat="42.72832" lon="1.98783">
        <ele>1979.01</ele>
        <time>2018-01-31T13:23:06Z</time>
      </trkpt>
      <trkpt lat="42.72832" lon="1.98786">
        <ele>1981.41</ele>
        <time>2018-01-31T13:23:41Z</time>
      </trkpt>
      <trkpt lat="42.72831" lon="1.98785">
        <ele>1979.01</ele>
        <time>2018-01-31T13:24:15Z</time>
      </trkpt>
      <trkpt lat="42.72831" lon="1.98783">
        <ele>1979.49</ele>
        <time>2018-01-31T13:24:46Z</time>
      </trkpt>
      <trkpt lat="42.72826" lon="1.98781">
        <ele>1980.45</ele>
        <time>2018-01-31T13:25:12Z</time>
      </trkpt>
      <trkpt lat="42.72813" lon="1.9878">
        <ele>1981.41</ele>
        <time>2018-01-31T13:25:30Z</time>
      </trkpt>
      <trkpt lat="42.72811" lon="1.9878">
        <ele>1981.41</ele>
        <time>2018-01-31T13:25:33Z</time>
      </trkpt>
      <trkpt lat="42.728" lon="1.98781">
        <ele>1983.34</ele>
        <time>2018-01-31T13:25:48Z</time>
      </trkpt>
      <trkpt lat="42.72795" lon="1.9878">
        <ele>1984.3</ele>
        <time>2018-01-31T13:25:56Z</time>
      </trkpt>
      <trkpt lat="42.72784" lon="1.98779">
        <ele>1986.22</ele>
        <time>2018-01-31T13:26:13Z</time>
      </trkpt>
      <trkpt lat="42.72773" lon="1.98777">
        <ele>1986.7</ele>
        <time>2018-01-31T13:26:30Z</time>
      </trkpt>
      <trkpt lat="42.72762" lon="1.98776">
        <ele>1987.18</ele>
        <time>2018-01-31T13:26:46Z</time>
      </trkpt>
      <trkpt lat="42.7275" lon="1.98778">
        <ele>1989.1</ele>
        <time>2018-01-31T13:27:02Z</time>
      </trkpt>
      <trkpt lat="42.72746" lon="1.98779">
        <ele>1989.59</ele>
        <time>2018-01-31T13:27:07Z</time>
      </trkpt>
      <trkpt lat="42.72736" lon="1.98785">
        <ele>1989.1</ele>
        <time>2018-01-31T13:27:21Z</time>
      </trkpt>
      <trkpt lat="42.72729" lon="1.98782">
        <ele>1990.07</ele>
        <time>2018-01-31T13:27:34Z</time>
      </trkpt>
      <trkpt lat="42.7273" lon="1.98781">
        <ele>1989.59</ele>
        <time>2018-01-31T13:27:50Z</time>
      </trkpt>
      <trkpt lat="42.72733" lon="1.98781">
        <ele>1988.62</ele>
        <time>2018-01-31T13:28:39Z</time>
      </trkpt>
      <trkpt lat="42.72733" lon="1.9878">
        <ele>1987.18</ele>
        <time>2018-01-31T13:29:25Z</time>
      </trkpt>
      <trkpt lat="42.72733" lon="1.98782">
        <ele>1985.26</ele>
        <time>2018-01-31T13:29:59Z</time>
      </trkpt>
      <trkpt lat="42.72733" lon="1.98783">
        <ele>1986.7</ele>
        <time>2018-01-31T13:30:11Z</time>
      </trkpt>
      <trkpt lat="42.72731" lon="1.98783">
        <ele>1989.1</ele>
        <time>2018-01-31T13:30:40Z</time>
      </trkpt>
      <trkpt lat="42.72733" lon="1.98783">
        <ele>1988.14</ele>
        <time>2018-01-31T13:31:05Z</time>
      </trkpt>
      <trkpt lat="42.72732" lon="1.98782">
        <ele>1985.74</ele>
        <time>2018-01-31T13:31:22Z</time>
      </trkpt>
      <trkpt lat="42.72733" lon="1.98782">
        <ele>1988.14</ele>
        <time>2018-01-31T13:31:44Z</time>
      </trkpt>
      <trkpt lat="42.72733" lon="1.98783">
        <ele>1986.22</ele>
        <time>2018-01-31T13:32:17Z</time>
      </trkpt>
      <trkpt lat="42.72734" lon="1.98783">
        <ele>1986.22</ele>
        <time>2018-01-31T13:32:51Z</time>
      </trkpt>
      <trkpt lat="42.72734" lon="1.98784">
        <ele>1986.22</ele>
        <time>2018-01-31T13:33:18Z</time>
      </trkpt>
      <trkpt lat="42.72734" lon="1.98784">
        <ele>1987.66</ele>
        <time>2018-01-31T13:33:47Z</time>
      </trkpt>
      <trkpt lat="42.72733" lon="1.98784">
        <ele>1987.66</ele>
        <time>2018-01-31T13:34:16Z</time>
      </trkpt>
      <trkpt lat="42.72733" lon="1.98783">
        <ele>1987.18</ele>
        <time>2018-01-31T13:34:53Z</time>
      </trkpt>
      <trkpt lat="42.72733" lon="1.98784">
        <ele>1987.66</ele>
        <time>2018-01-31T13:35:23Z</time>
      </trkpt>
      <trkpt lat="42.72733" lon="1.98784">
        <ele>1986.22</ele>
        <time>2018-01-31T13:35:52Z</time>
      </trkpt>
      <trkpt lat="42.72733" lon="1.98785">
        <ele>1987.18</ele>
        <time>2018-01-31T13:36:17Z</time>
      </trkpt>
      <trkpt lat="42.72733" lon="1.98784">
        <ele>1988.14</ele>
        <time>2018-01-31T13:36:46Z</time>
      </trkpt>
      <trkpt lat="42.72733" lon="1.98784">
        <ele>1988.62</ele>
        <time>2018-01-31T13:37:09Z</time>
      </trkpt>
      <trkpt lat="42.72734" lon="1.98785">
        <ele>1989.59</ele>
        <time>2018-01-31T13:37:34Z</time>
      </trkpt>
      <trkpt lat="42.72733" lon="1.98785">
        <ele>1988.62</ele>
        <time>2018-01-31T13:37:59Z</time>
      </trkpt>
      <trkpt lat="42.72733" lon="1.98784">
        <ele>1988.62</ele>
        <time>2018-01-31T13:38:09Z</time>
      </trkpt>
      <trkpt lat="42.72733" lon="1.98784">
        <ele>1988.62</ele>
        <time>2018-01-31T13:38:19Z</time>
      </trkpt>
      <trkpt lat="42.72733" lon="1.98781">
        <ele>1988.62</ele>
        <time>2018-01-31T13:38:40Z</time>
      </trkpt>
      <trkpt lat="42.72733" lon="1.98784">
        <ele>1987.18</ele>
        <time>2018-01-31T13:39:00Z</time>
      </trkpt>
      <trkpt lat="42.72732" lon="1.98783">
        <ele>1987.66</ele>
        <time>2018-01-31T13:39:23Z</time>
      </trkpt>
      <trkpt lat="42.7273" lon="1.98788">
        <ele>1989.1</ele>
        <time>2018-01-31T13:39:33Z</time>
      </trkpt>
      <trkpt lat="42.72725" lon="1.988">
        <ele>1987.18</ele>
        <time>2018-01-31T13:39:37Z</time>
      </trkpt>
      <trkpt lat="42.72725" lon="1.98814">
        <ele>1984.3</ele>
        <time>2018-01-31T13:39:40Z</time>
      </trkpt>
      <trkpt lat="42.72724" lon="1.98818">
        <ele>1983.82</ele>
        <time>2018-01-31T13:39:41Z</time>
      </trkpt>
      <trkpt lat="42.72721" lon="1.98822">
        <ele>1983.34</ele>
        <time>2018-01-31T13:39:42Z</time>
      </trkpt>
      <trkpt lat="42.72717" lon="1.98824">
        <ele>1982.86</ele>
        <time>2018-01-31T13:39:43Z</time>
      </trkpt>
      <trkpt lat="42.72699" lon="1.98846">
        <ele>1979.97</ele>
        <time>2018-01-31T13:39:52Z</time>
      </trkpt>
      <trkpt lat="42.72702" lon="1.9886">
        <ele>1974.2</ele>
        <time>2018-01-31T13:39:56Z</time>
      </trkpt>
      <trkpt lat="42.72705" lon="1.98882">
        <ele>1963.63</ele>
        <time>2018-01-31T13:40:02Z</time>
      </trkpt>
      <trkpt lat="42.7271" lon="1.98911">
        <ele>1953.54</ele>
        <time>2018-01-31T13:40:07Z</time>
      </trkpt>
      <trkpt lat="42.72699" lon="1.98936">
        <ele>1945.85</ele>
        <time>2018-01-31T13:40:11Z</time>
      </trkpt>
      <trkpt lat="42.72716" lon="1.98948">
        <ele>1938.16</ele>
        <time>2018-01-31T13:40:15Z</time>
      </trkpt>
      <trkpt lat="42.72728" lon="1.98976">
        <ele>1927.1</ele>
        <time>2018-01-31T13:40:21Z</time>
      </trkpt>
      <trkpt lat="42.72741" lon="1.98999">
        <ele>1916.04</ele>
        <time>2018-01-31T13:40:27Z</time>
      </trkpt>
      <trkpt lat="42.7274" lon="1.99011">
        <ele>1911.24</ele>
        <time>2018-01-31T13:40:31Z</time>
      </trkpt>
      <trkpt lat="42.72735" lon="1.99016">
        <ele>1909.8</ele>
        <time>2018-01-31T13:40:34Z</time>
      </trkpt>
      <trkpt lat="42.72742" lon="1.99037">
        <ele>1900.18</ele>
        <time>2018-01-31T13:40:40Z</time>
      </trkpt>
      <trkpt lat="42.72752" lon="1.99061">
        <ele>1889.61</ele>
        <time>2018-01-31T13:40:44Z</time>
      </trkpt>
      <trkpt lat="42.7276" lon="1.99093">
        <ele>1875.19</ele>
        <time>2018-01-31T13:40:49Z</time>
      </trkpt>
      <trkpt lat="42.72769" lon="1.99128">
        <ele>1865.58</ele>
        <time>2018-01-31T13:40:54Z</time>
      </trkpt>
      <trkpt lat="42.72775" lon="1.9914">
        <ele>1862.69</ele>
        <time>2018-01-31T13:40:56Z</time>
      </trkpt>
      <trkpt lat="42.7278" lon="1.99155">
        <ele>1859.33</ele>
        <time>2018-01-31T13:40:58Z</time>
      </trkpt>
      <trkpt lat="42.72777" lon="1.9921">
        <ele>1846.83</ele>
        <time>2018-01-31T13:41:05Z</time>
      </trkpt>
      <trkpt lat="42.72769" lon="1.9924">
        <ele>1838.66</ele>
        <time>2018-01-31T13:41:10Z</time>
      </trkpt>
      <trkpt lat="42.72772" lon="1.99271">
        <ele>1831.45</ele>
        <time>2018-01-31T13:41:16Z</time>
      </trkpt>
      <trkpt lat="42.72775" lon="1.99291">
        <ele>1825.2</ele>
        <time>2018-01-31T13:41:20Z</time>
      </trkpt>
      <trkpt lat="42.72778" lon="1.99291">
        <ele>1823.28</ele>
        <time>2018-01-31T13:41:28Z</time>
      </trkpt>
      <trkpt lat="42.72776" lon="1.99291">
        <ele>1822.8</ele>
        <time>2018-01-31T13:41:47Z</time>
      </trkpt>
      <trkpt lat="42.72767" lon="1.99305">
        <ele>1819.91</ele>
        <time>2018-01-31T13:41:52Z</time>
      </trkpt>
      <trkpt lat="42.72763" lon="1.99309">
        <ele>1818.47</ele>
        <time>2018-01-31T13:41:54Z</time>
      </trkpt>
      <trkpt lat="42.72767" lon="1.99336">
        <ele>1808.38</ele>
        <time>2018-01-31T13:42:00Z</time>
      </trkpt>
      <trkpt lat="42.72767" lon="1.9936">
        <ele>1800.21</ele>
        <time>2018-01-31T13:42:04Z</time>
      </trkpt>
      <trkpt lat="42.72768" lon="1.99404">
        <ele>1791.55</ele>
        <time>2018-01-31T13:42:08Z</time>
      </trkpt>
      <trkpt lat="42.72747" lon="1.99454">
        <ele>1781.46</ele>
        <time>2018-01-31T13:42:16Z</time>
      </trkpt>
      <trkpt lat="42.72746" lon="1.99511">
        <ele>1776.65</ele>
        <time>2018-01-31T13:42:24Z</time>
      </trkpt>
      <trkpt lat="42.72746" lon="1.99524">
        <ele>1777.61</ele>
        <time>2018-01-31T13:42:34Z</time>
      </trkpt>
      <trkpt lat="42.72744" lon="1.99522">
        <ele>1779.06</ele>
        <time>2018-01-31T13:42:51Z</time>
      </trkpt>
      <trkpt lat="42.72743" lon="1.99521">
        <ele>1780.98</ele>
        <time>2018-01-31T13:43:18Z</time>
      </trkpt>
      <trkpt lat="42.72744" lon="1.99523">
        <ele>1780.02</ele>
        <time>2018-01-31T13:43:34Z</time>
      </trkpt>
      <trkpt lat="42.72745" lon="1.99525">
        <ele>1781.46</ele>
        <time>2018-01-31T13:43:48Z</time>
      </trkpt>
      <trkpt lat="42.7274" lon="1.99545">
        <ele>1781.46</ele>
        <time>2018-01-31T13:43:55Z</time>
      </trkpt>
      <trkpt lat="42.72741" lon="1.99556">
        <ele>1780.5</ele>
        <time>2018-01-31T13:43:57Z</time>
      </trkpt>
      <trkpt lat="42.72745" lon="1.99581">
        <ele>1777.61</ele>
        <time>2018-01-31T13:44:02Z</time>
      </trkpt>
      <trkpt lat="42.72737" lon="1.99589">
        <ele>1776.17</ele>
        <time>2018-01-31T13:44:07Z</time>
      </trkpt>
      <trkpt lat="42.72719" lon="1.99594">
        <ele>1773.77</ele>
        <time>2018-01-31T13:44:13Z</time>
      </trkpt>
      <trkpt lat="42.72698" lon="1.99615">
        <ele>1769.92</ele>
        <time>2018-01-31T13:44:26Z</time>
      </trkpt>
      <trkpt lat="42.72685" lon="1.99628">
        <ele>1767.04</ele>
        <time>2018-01-31T13:44:33Z</time>
      </trkpt>
      <trkpt lat="42.72685" lon="1.99649">
        <ele>1759.83</ele>
        <time>2018-01-31T13:44:38Z</time>
      </trkpt>
      <trkpt lat="42.72686" lon="1.9967">
        <ele>1749.26</ele>
        <time>2018-01-31T13:44:43Z</time>
      </trkpt>
      <trkpt lat="42.72705" lon="1.99678">
        <ele>1744.93</ele>
        <time>2018-01-31T13:44:47Z</time>
      </trkpt>
      <trkpt lat="42.72735" lon="1.99678">
        <ele>1738.68</ele>
        <time>2018-01-31T13:44:53Z</time>
      </trkpt>
      <trkpt lat="42.72733" lon="1.99697">
        <ele>1732.91</ele>
        <time>2018-01-31T13:44:58Z</time>
      </trkpt>
      <trkpt lat="42.72733" lon="1.99722">
        <ele>1724.26</ele>
        <time>2018-01-31T13:45:03Z</time>
      </trkpt>
      <trkpt lat="42.72728" lon="1.99757">
        <ele>1716.57</ele>
        <time>2018-01-31T13:45:08Z</time>
      </trkpt>
      <trkpt lat="42.72675" lon="1.99826">
        <ele>1701.67</ele>
        <time>2018-01-31T13:45:16Z</time>
      </trkpt>
      <trkpt lat="42.72634" lon="1.99869">
        <ele>1698.31</ele>
        <time>2018-01-31T13:45:26Z</time>
      </trkpt>
      <trkpt lat="42.72629" lon="1.99872">
        <ele>1698.31</ele>
        <time>2018-01-31T13:45:36Z</time>
      </trkpt>
      <trkpt lat="42.72629" lon="1.99874">
        <ele>1699.27</ele>
        <time>2018-01-31T13:45:51Z</time>
      </trkpt>
      <trkpt lat="42.72625" lon="1.99878">
        <ele>1701.19</ele>
        <time>2018-01-31T13:46:00Z</time>
      </trkpt>
      <trkpt lat="42.72625" lon="1.99879">
        <ele>1701.67</ele>
        <time>2018-01-31T13:46:14Z</time>
      </trkpt>
      <trkpt lat="42.72625" lon="1.99877">
        <ele>1704.07</ele>
        <time>2018-01-31T13:46:31Z</time>
      </trkpt>
      <trkpt lat="42.72623" lon="1.99878">
        <ele>1704.07</ele>
        <time>2018-01-31T13:46:45Z</time>
      </trkpt>
      <trkpt lat="42.72622" lon="1.99883">
        <ele>1702.63</ele>
        <time>2018-01-31T13:47:09Z</time>
      </trkpt>
      <trkpt lat="42.72621" lon="1.99881">
        <ele>1703.11</ele>
        <time>2018-01-31T13:47:45Z</time>
      </trkpt>
      <trkpt lat="42.72617" lon="1.99884">
        <ele>1703.11</ele>
        <time>2018-01-31T13:48:14Z</time>
      </trkpt>
      <trkpt lat="42.7262" lon="1.99881">
        <ele>1705.04</ele>
        <time>2018-01-31T13:49:07Z</time>
      </trkpt>
      <trkpt lat="42.72621" lon="1.9988">
        <ele>1706.96</ele>
        <time>2018-01-31T13:49:54Z</time>
      </trkpt>
      <trkpt lat="42.72621" lon="1.99879">
        <ele>1706.48</ele>
        <time>2018-01-31T13:50:36Z</time>
      </trkpt>
      <trkpt lat="42.7262" lon="1.99879">
        <ele>1708.4</ele>
        <time>2018-01-31T13:50:56Z</time>
      </trkpt>
      <trkpt lat="42.72622" lon="1.99879">
        <ele>1708.4</ele>
        <time>2018-01-31T13:51:06Z</time>
      </trkpt>
      <trkpt lat="42.72621" lon="1.99879">
        <ele>1710.8</ele>
        <time>2018-01-31T13:51:23Z</time>
      </trkpt>
      <trkpt lat="42.72622" lon="1.99879">
        <ele>1709.84</ele>
        <time>2018-01-31T13:51:46Z</time>
      </trkpt>
      <trkpt lat="42.72619" lon="1.99883">
        <ele>1710.32</ele>
        <time>2018-01-31T13:52:03Z</time>
      </trkpt>
      <trkpt lat="42.72616" lon="1.99884">
        <ele>1710.32</ele>
        <time>2018-01-31T13:52:15Z</time>
      </trkpt>
      <trkpt lat="42.72606" lon="1.99886">
        <ele>1709.84</ele>
        <time>2018-01-31T13:52:28Z</time>
      </trkpt>
      <trkpt lat="42.72598" lon="1.99889">
        <ele>1709.84</ele>
        <time>2018-01-31T13:52:42Z</time>
      </trkpt>
      <trkpt lat="42.72588" lon="1.9989">
        <ele>1711.76</ele>
        <time>2018-01-31T13:52:56Z</time>
      </trkpt>
      <trkpt lat="42.72581" lon="1.99892">
        <ele>1713.21</ele>
        <time>2018-01-31T13:53:08Z</time>
      </trkpt>
      <trkpt lat="42.7257" lon="1.99892">
        <ele>1715.61</ele>
        <time>2018-01-31T13:53:25Z</time>
      </trkpt>
      <trkpt lat="42.72567" lon="1.99898">
        <ele>1716.57</ele>
        <time>2018-01-31T13:53:36Z</time>
      </trkpt>
      <trkpt lat="42.72565" lon="1.99912">
        <ele>1717.53</ele>
        <time>2018-01-31T13:53:55Z</time>
      </trkpt>
      <trkpt lat="42.72564" lon="1.99922">
        <ele>1718.97</ele>
        <time>2018-01-31T13:54:07Z</time>
      </trkpt>
      <trkpt lat="42.72561" lon="1.9993">
        <ele>1718.49</ele>
        <time>2018-01-31T13:54:21Z</time>
      </trkpt>
      <trkpt lat="42.72554" lon="1.99936">
        <ele>1719.46</ele>
        <time>2018-01-31T13:54:33Z</time>
      </trkpt>
      <trkpt lat="42.7255" lon="1.99941">
        <ele>1719.94</ele>
        <time>2018-01-31T13:54:42Z</time>
      </trkpt>
      <trkpt lat="42.72541" lon="1.99949">
        <ele>1720.9</ele>
        <time>2018-01-31T13:54:57Z</time>
      </trkpt>
      <trkpt lat="42.72531" lon="1.99959">
        <ele>1720.9</ele>
        <time>2018-01-31T13:55:14Z</time>
      </trkpt>
      <trkpt lat="42.72522" lon="1.99968">
        <ele>1722.82</ele>
        <time>2018-01-31T13:55:29Z</time>
      </trkpt>
      <trkpt lat="42.72515" lon="1.99972">
        <ele>1723.78</ele>
        <time>2018-01-31T13:55:43Z</time>
      </trkpt>
      <trkpt lat="42.72513" lon="1.99973">
        <ele>1723.78</ele>
        <time>2018-01-31T13:55:46Z</time>
      </trkpt>
      <trkpt lat="42.72501" lon="1.99974">
        <ele>1722.82</ele>
        <time>2018-01-31T13:56:00Z</time>
      </trkpt>
      <trkpt lat="42.72495" lon="1.99973">
        <ele>1721.38</ele>
        <time>2018-01-31T13:56:04Z</time>
      </trkpt>
      <trkpt lat="42.72481" lon="1.99967">
        <ele>1718.97</ele>
        <time>2018-01-31T13:56:18Z</time>
      </trkpt>
      <trkpt lat="42.72466" lon="1.9996">
        <ele>1718.97</ele>
        <time>2018-01-31T13:56:35Z</time>
      </trkpt>
      <trkpt lat="42.72453" lon="1.99957">
        <ele>1718.49</ele>
        <time>2018-01-31T13:56:50Z</time>
      </trkpt>
      <trkpt lat="42.7244" lon="1.99956">
        <ele>1718.49</ele>
        <time>2018-01-31T13:57:06Z</time>
      </trkpt>
      <trkpt lat="42.72424" lon="1.99955">
        <ele>1719.46</ele>
        <time>2018-01-31T13:57:25Z</time>
      </trkpt>
      <trkpt lat="42.72412" lon="1.99953">
        <ele>1720.9</ele>
        <time>2018-01-31T13:57:41Z</time>
      </trkpt>
      <trkpt lat="42.7241" lon="1.99952">
        <ele>1720.9</ele>
        <time>2018-01-31T13:57:43Z</time>
      </trkpt>
      <trkpt lat="42.72397" lon="1.99949">
        <ele>1722.34</ele>
        <time>2018-01-31T13:57:59Z</time>
      </trkpt>
      <trkpt lat="42.72391" lon="1.99948">
        <ele>1722.34</ele>
        <time>2018-01-31T13:58:07Z</time>
      </trkpt>
      <trkpt lat="42.72381" lon="1.99943">
        <ele>1723.78</ele>
        <time>2018-01-31T13:58:24Z</time>
      </trkpt>
      <trkpt lat="42.72378" lon="1.99941">
        <ele>1722.82</ele>
        <time>2018-01-31T13:58:33Z</time>
      </trkpt>
      <trkpt lat="42.72365" lon="1.99938">
        <ele>1721.38</ele>
        <time>2018-01-31T13:58:47Z</time>
      </trkpt>
      <trkpt lat="42.72347" lon="1.99938">
        <ele>1718.49</ele>
        <time>2018-01-31T13:59:01Z</time>
      </trkpt>
      <trkpt lat="42.72346" lon="1.99939">
        <ele>1718.49</ele>
        <time>2018-01-31T13:59:02Z</time>
      </trkpt>
      <trkpt lat="42.72336" lon="1.99938">
        <ele>1717.53</ele>
        <time>2018-01-31T13:59:13Z</time>
      </trkpt>
      <trkpt lat="42.72336" lon="1.99938">
        <ele>1717.53</ele>
        <time>2018-01-31T13:59:20Z</time>
      </trkpt>
      <trkpt lat="42.72336" lon="1.99938">
        <ele>1719.94</ele>
        <time>2018-01-31T13:59:36Z</time>
      </trkpt>
      <trkpt lat="42.72335" lon="1.99937">
        <ele>1718.49</ele>
        <time>2018-01-31T13:59:52Z</time>
      </trkpt>
      <trkpt lat="42.72335" lon="1.99939">
        <ele>1716.09</ele>
        <time>2018-01-31T14:00:24Z</time>
      </trkpt>
      <trkpt lat="42.72335" lon="1.99939">
        <ele>1717.05</ele>
        <time>2018-01-31T14:01:00Z</time>
      </trkpt>
      <trkpt lat="42.72336" lon="1.99939">
        <ele>1715.61</ele>
        <time>2018-01-31T14:01:28Z</time>
      </trkpt>
      <trkpt lat="42.72336" lon="1.99938">
        <ele>1715.61</ele>
        <time>2018-01-31T14:01:51Z</time>
      </trkpt>
      <trkpt lat="42.72337" lon="1.99938">
        <ele>1714.65</ele>
        <time>2018-01-31T14:02:11Z</time>
      </trkpt>
      <trkpt lat="42.72336" lon="1.99938">
        <ele>1713.21</ele>
        <time>2018-01-31T14:02:29Z</time>
      </trkpt>
      <trkpt lat="42.72336" lon="1.9994">
        <ele>1717.05</ele>
        <time>2018-01-31T14:03:13Z</time>
      </trkpt>
      <trkpt lat="42.72336" lon="1.99938">
        <ele>1715.13</ele>
        <time>2018-01-31T14:03:45Z</time>
      </trkpt>
      <trkpt lat="42.72336" lon="1.99939">
        <ele>1716.57</ele>
        <time>2018-01-31T14:04:01Z</time>
      </trkpt>
      <trkpt lat="42.72336" lon="1.99939">
        <ele>1718.49</ele>
        <time>2018-01-31T14:04:25Z</time>
      </trkpt>
      <trkpt lat="42.72335" lon="1.99939">
        <ele>1718.49</ele>
        <time>2018-01-31T14:04:50Z</time>
      </trkpt>
      <trkpt lat="42.72334" lon="1.99938">
        <ele>1721.38</ele>
        <time>2018-01-31T14:05:22Z</time>
      </trkpt>
      <trkpt lat="42.72337" lon="1.9994">
        <ele>1720.42</ele>
        <time>2018-01-31T14:05:43Z</time>
      </trkpt>
      <trkpt lat="42.72341" lon="1.99953">
        <ele>1719.94</ele>
        <time>2018-01-31T14:05:49Z</time>
      </trkpt>
      <trkpt lat="42.72362" lon="2.0003">
        <ele>1712.25</ele>
        <time>2018-01-31T14:05:58Z</time>
      </trkpt>
      <trkpt lat="42.72387" lon="2.0009">
        <ele>1704.55</ele>
        <time>2018-01-31T14:06:03Z</time>
      </trkpt>
      <trkpt lat="42.72406" lon="2.00149">
        <ele>1698.31</ele>
        <time>2018-01-31T14:06:08Z</time>
      </trkpt>
      <trkpt lat="42.72432" lon="2.00213">
        <ele>1692.06</ele>
        <time>2018-01-31T14:06:15Z</time>
      </trkpt>
      <trkpt lat="42.72449" lon="2.00305">
        <ele>1685.81</ele>
        <time>2018-01-31T14:06:27Z</time>
      </trkpt>
      <trkpt lat="42.72451" lon="2.00334">
        <ele>1684.37</ele>
        <time>2018-01-31T14:06:32Z</time>
      </trkpt>
      <trkpt lat="42.72448" lon="2.00354">
        <ele>1682.93</ele>
        <time>2018-01-31T14:06:35Z</time>
      </trkpt>
      <trkpt lat="42.72446" lon="2.0038">
        <ele>1681.48</ele>
        <time>2018-01-31T14:06:38Z</time>
      </trkpt>
      <trkpt lat="42.72439" lon="2.00438">
        <ele>1677.16</ele>
        <time>2018-01-31T14:06:44Z</time>
      </trkpt>
      <trkpt lat="42.72466" lon="2.0056">
        <ele>1669.95</ele>
        <time>2018-01-31T14:06:58Z</time>
      </trkpt>
      <trkpt lat="42.72476" lon="2.00598">
        <ele>1668.99</ele>
        <time>2018-01-31T14:07:08Z</time>
      </trkpt>
      <trkpt lat="42.72482" lon="2.00628">
        <ele>1669.47</ele>
        <time>2018-01-31T14:07:20Z</time>
      </trkpt>
      <trkpt lat="42.72483" lon="2.00647">
        <ele>1670.43</ele>
        <time>2018-01-31T14:07:32Z</time>
      </trkpt>
      <trkpt lat="42.72485" lon="2.00655">
        <ele>1671.39</ele>
        <time>2018-01-31T14:07:42Z</time>
      </trkpt>
      <trkpt lat="42.72492" lon="2.00666">
        <ele>1671.39</ele>
        <time>2018-01-31T14:07:54Z</time>
      </trkpt>
      <trkpt lat="42.72493" lon="2.0067">
        <ele>1671.87</ele>
        <time>2018-01-31T14:07:58Z</time>
      </trkpt>
      <trkpt lat="42.72494" lon="2.00675">
        <ele>1672.83</ele>
        <time>2018-01-31T14:08:02Z</time>
      </trkpt>
      <trkpt lat="42.72495" lon="2.00679">
        <ele>1673.31</ele>
        <time>2018-01-31T14:08:06Z</time>
      </trkpt>
      <trkpt lat="42.72497" lon="2.00683">
        <ele>1673.79</ele>
        <time>2018-01-31T14:08:09Z</time>
      </trkpt>
      <trkpt lat="42.72497" lon="2.00688">
        <ele>1674.27</ele>
        <time>2018-01-31T14:08:13Z</time>
      </trkpt>
      <trkpt lat="42.72497" lon="2.00695">
        <ele>1674.75</ele>
        <time>2018-01-31T14:08:23Z</time>
      </trkpt>
      <trkpt lat="42.72493" lon="2.00702">
        <ele>1676.2</ele>
        <time>2018-01-31T14:08:37Z</time>
      </trkpt>
      <trkpt lat="42.72492" lon="2.00709">
        <ele>1677.16</ele>
        <time>2018-01-31T14:08:43Z</time>
      </trkpt>
      <trkpt lat="42.72484" lon="2.0073">
        <ele>1677.64</ele>
        <time>2018-01-31T14:08:55Z</time>
      </trkpt>
      <trkpt lat="42.72484" lon="2.00735">
        <ele>1676.2</ele>
        <time>2018-01-31T14:09:10Z</time>
      </trkpt>
      <trkpt lat="42.72479" lon="2.00755">
        <ele>1677.64</ele>
        <time>2018-01-31T14:09:28Z</time>
      </trkpt>
      <trkpt lat="42.72476" lon="2.00765">
        <ele>1678.6</ele>
        <time>2018-01-31T14:09:30Z</time>
      </trkpt>
      <trkpt lat="42.72463" lon="2.00791">
        <ele>1678.6</ele>
        <time>2018-01-31T14:09:33Z</time>
      </trkpt>
      <trkpt lat="42.72447" lon="2.00858">
        <ele>1676.2</ele>
        <time>2018-01-31T14:09:40Z</time>
      </trkpt>
      <trkpt lat="42.72448" lon="2.00861">
        <ele>1675.72</ele>
        <time>2018-01-31T14:09:41Z</time>
      </trkpt>
      <trkpt lat="42.72475" lon="2.00903">
        <ele>1668.51</ele>
        <time>2018-01-31T14:09:56Z</time>
      </trkpt>
      <trkpt lat="42.72492" lon="2.00934">
        <ele>1665.14</ele>
        <time>2018-01-31T14:10:03Z</time>
      </trkpt>
      <trkpt lat="42.72508" lon="2.00963">
        <ele>1663.7</ele>
        <time>2018-01-31T14:10:09Z</time>
      </trkpt>
      <trkpt lat="42.72515" lon="2.0098">
        <ele>1662.74</ele>
        <time>2018-01-31T14:10:12Z</time>
      </trkpt>
      <trkpt lat="42.7252" lon="2.00999">
        <ele>1661.78</ele>
        <time>2018-01-31T14:10:15Z</time>
      </trkpt>
      <trkpt lat="42.72521" lon="2.01013">
        <ele>1659.85</ele>
        <time>2018-01-31T14:10:17Z</time>
      </trkpt>
      <trkpt lat="42.72524" lon="2.01067">
        <ele>1654.57</ele>
        <time>2018-01-31T14:10:23Z</time>
      </trkpt>
      <trkpt lat="42.72523" lon="2.01137">
        <ele>1647.36</ele>
        <time>2018-01-31T14:10:30Z</time>
      </trkpt>
      <trkpt lat="42.72537" lon="2.01201">
        <ele>1637.26</ele>
        <time>2018-01-31T14:10:36Z</time>
      </trkpt>
      <trkpt lat="42.72551" lon="2.0124">
        <ele>1631.01</ele>
        <time>2018-01-31T14:10:40Z</time>
      </trkpt>
      <trkpt lat="42.72548" lon="2.01262">
        <ele>1630.05</ele>
        <time>2018-01-31T14:10:42Z</time>
      </trkpt>
      <trkpt lat="42.72546" lon="2.01301">
        <ele>1628.13</ele>
        <time>2018-01-31T14:10:46Z</time>
      </trkpt>
      <trkpt lat="42.72556" lon="2.01313">
        <ele>1627.17</ele>
        <time>2018-01-31T14:10:49Z</time>
      </trkpt>
      <trkpt lat="42.72591" lon="2.01362">
        <ele>1620.44</ele>
        <time>2018-01-31T14:10:57Z</time>
      </trkpt>
      <trkpt lat="42.72614" lon="2.01392">
        <ele>1610.83</ele>
        <time>2018-01-31T14:11:02Z</time>
      </trkpt>
      <trkpt lat="42.72635" lon="2.01421">
        <ele>1599.29</ele>
        <time>2018-01-31T14:11:07Z</time>
      </trkpt>
      <trkpt lat="42.72639" lon="2.01449">
        <ele>1590.64</ele>
        <time>2018-01-31T14:11:11Z</time>
      </trkpt>
      <trkpt lat="42.72674" lon="2.01499">
        <ele>1571.89</ele>
        <time>2018-01-31T14:11:17Z</time>
      </trkpt>
      <trkpt lat="42.72705" lon="2.01546">
        <ele>1558.43</ele>
        <time>2018-01-31T14:11:21Z</time>
      </trkpt>
      <trkpt lat="42.72748" lon="2.01604">
        <ele>1543.53</ele>
        <time>2018-01-31T14:11:26Z</time>
      </trkpt>
      <trkpt lat="42.72772" lon="2.01625">
        <ele>1537.77</ele>
        <time>2018-01-31T14:11:29Z</time>
      </trkpt>
      <trkpt lat="42.7279" lon="2.01655">
        <ele>1535.84</ele>
        <time>2018-01-31T14:11:35Z</time>
      </trkpt>
      <trkpt lat="42.72789" lon="2.01653">
        <ele>1535.84</ele>
        <time>2018-01-31T14:11:42Z</time>
      </trkpt>
      <trkpt lat="42.72789" lon="2.01653">
        <ele>1533.92</ele>
        <time>2018-01-31T14:11:56Z</time>
      </trkpt>
      <trkpt lat="42.72788" lon="2.01653">
        <ele>1533.92</ele>
        <time>2018-01-31T14:11:57Z</time>
      </trkpt>
      <trkpt lat="42.7278" lon="2.01659">
        <ele>1532.96</ele>
        <time>2018-01-31T14:12:02Z</time>
      </trkpt>
      <trkpt lat="42.72775" lon="2.01676">
        <ele>1531.04</ele>
        <time>2018-01-31T14:12:12Z</time>
      </trkpt>
      <trkpt lat="42.72775" lon="2.01676">
        <ele>1530.56</ele>
        <time>2018-01-31T14:12:31Z</time>
      </trkpt>
      <trkpt lat="42.72774" lon="2.01676">
        <ele>1530.56</ele>
        <time>2018-01-31T14:12:46Z</time>
      </trkpt>
      <trkpt lat="42.72775" lon="2.01676">
        <ele>1531.04</ele>
        <time>2018-01-31T14:13:09Z</time>
      </trkpt>
      <trkpt lat="42.72778" lon="2.01686">
        <ele>1530.56</ele>
        <time>2018-01-31T14:13:19Z</time>
      </trkpt>
      <trkpt lat="42.72781" lon="2.01689">
        <ele>1530.08</ele>
        <time>2018-01-31T14:13:22Z</time>
      </trkpt>
      <trkpt lat="42.72792" lon="2.01697">
        <ele>1534.4</ele>
        <time>2018-01-31T14:13:40Z</time>
      </trkpt>
      <trkpt lat="42.72798" lon="2.01708">
        <ele>1538.73</ele>
        <time>2018-01-31T14:13:55Z</time>
      </trkpt>
      <trkpt lat="42.72803" lon="2.01713">
        <ele>1537.77</ele>
        <time>2018-01-31T14:14:07Z</time>
      </trkpt>
      <trkpt lat="42.72806" lon="2.01711">
        <ele>1533.92</ele>
        <time>2018-01-31T14:14:20Z</time>
      </trkpt>
      <trkpt lat="42.72802" lon="2.01712">
        <ele>1532</ele>
        <time>2018-01-31T14:14:32Z</time>
      </trkpt>
      <trkpt lat="42.72805" lon="2.01713">
        <ele>1532.48</ele>
        <time>2018-01-31T14:14:45Z</time>
      </trkpt>
      <trkpt lat="42.72805" lon="2.0171">
        <ele>1532.96</ele>
        <time>2018-01-31T14:14:57Z</time>
      </trkpt>
      <trkpt lat="42.72806" lon="2.0171">
        <ele>1531.52</ele>
        <time>2018-01-31T14:15:16Z</time>
      </trkpt>
      <trkpt lat="42.72808" lon="2.0171">
        <ele>1527.67</ele>
        <time>2018-01-31T14:15:47Z</time>
      </trkpt>
      <trkpt lat="42.72804" lon="2.01712">
        <ele>1533.92</ele>
        <time>2018-01-31T14:16:21Z</time>
      </trkpt>
      <trkpt lat="42.72796" lon="2.01716">
        <ele>1541.13</ele>
        <time>2018-01-31T14:16:59Z</time>
      </trkpt>
      <trkpt lat="42.72793" lon="2.01715">
        <ele>1544.5</ele>
        <time>2018-01-31T14:17:35Z</time>
      </trkpt>
      <trkpt lat="42.72804" lon="2.01709">
        <ele>1534.88</ele>
        <time>2018-01-31T14:17:53Z</time>
      </trkpt>
      <trkpt lat="42.72804" lon="2.01712">
        <ele>1533.92</ele>
        <time>2018-01-31T14:18:05Z</time>
      </trkpt>
    </trkseg>
  </trk>
</gpx>